<?xml version='1.0' encoding='UTF-8'?><gpx version="1.1" creator="JPX - https://github.com/jenetics/jpx" xmlns="http://www.topografix.com/GPX/1/1"><trk><trkseg><trkpt lat="45.8015085" lon="11.3595429"><ele>310.0</ele><time>2026-04-25T10:55:43.671Z</time></trkpt><trkpt lat="45.8014446" lon="11.3595502"><ele>310.0</ele><time>2026-04-25T10:55:47.684Z</time></trkpt><trkpt lat="45.8013772" lon="11.3595545"><ele>310.0</ele><time>2026-04-25T10:55:51.674Z</time></trkpt><trkpt lat="45.8012966" lon="11.3595588"><ele>310.0</ele><time>2026-04-25T10:55:56.759Z</time></trkpt><trkpt lat="45.8012342" lon="11.3595443"><ele>310.0</ele><time>2026-04-25T10:55:59.67Z</time></trkpt><trkpt lat="45.8011694" lon="11.3595438"><ele>310.0</ele><time>2026-04-25T10:56:02.605Z</time></trkpt><trkpt lat="45.80109" lon="11.3595495"><ele>310.0</ele><time>2026-04-25T10:56:06.581Z</time></trkpt><trkpt lat="45.8010033" lon="11.3595414"><ele>310.0</ele><time>2026-04-25T10:56:10.646Z</time></trkpt><trkpt lat="45.8009304" lon="11.3595152"><ele>310.0</ele><time>2026-04-25T10:56:14.67Z</time></trkpt><trkpt lat="45.8008633" lon="11.3595198"><ele>310.0</ele><time>2026-04-25T10:56:18.684Z</time></trkpt><trkpt lat="45.8007867" lon="11.3595119"><ele>310.0</ele><time>2026-04-25T10:56:22.669Z</time></trkpt><trkpt lat="45.8007076" lon="11.3595018"><ele>310.0</ele><time>2026-04-25T10:56:26.677Z</time></trkpt><trkpt lat="45.8006429" lon="11.3594996"><ele>310.0</ele><time>2026-04-25T10:56:29.62Z</time></trkpt><trkpt lat="45.8005688" lon="11.3594961"><ele>310.0</ele><time>2026-04-25T10:56:32.575Z</time></trkpt><trkpt lat="45.8004935" lon="11.3594792"><ele>310.0</ele><time>2026-04-25T10:56:36.624Z</time></trkpt><trkpt lat="45.8004318" lon="11.3594586"><ele>310.0</ele><time>2026-04-25T10:56:39.671Z</time></trkpt><trkpt lat="45.8003702" lon="11.3594389"><ele>310.0</ele><time>2026-04-25T10:56:42.699Z</time></trkpt><trkpt lat="45.8003065" lon="11.3594453"><ele>310.0</ele><time>2026-04-25T10:56:45.68Z</time></trkpt><trkpt lat="45.8002391" lon="11.3594339"><ele>310.0</ele><time>2026-04-25T10:56:48.621Z</time></trkpt><trkpt lat="45.8001769" lon="11.3593693"><ele>310.0</ele><time>2026-04-25T10:56:52.677Z</time></trkpt><trkpt lat="45.8001296" lon="11.3593046"><ele>310.0</ele><time>2026-04-25T10:56:55.676Z</time></trkpt><trkpt lat="45.8000703" lon="11.3592308"><ele>308.16666666666663</ele><time>2026-04-25T10:56:59.625Z</time></trkpt><trkpt lat="45.8000203" lon="11.3591347"><ele>306.3333333333333</ele><time>2026-04-25T10:57:03.677Z</time></trkpt><trkpt lat="45.7999733" lon="11.3590691"><ele>304.5</ele><time>2026-04-25T10:57:06.667Z</time></trkpt><trkpt lat="45.7998967" lon="11.359029"><ele>302.6666666666667</ele><time>2026-04-25T10:57:09.689Z</time></trkpt><trkpt lat="45.7998226" lon="11.3589843"><ele>300.83333333333337</ele><time>2026-04-25T10:57:12.667Z</time></trkpt><trkpt lat="45.7997473" lon="11.3589414"><ele>299.0</ele><time>2026-04-25T10:57:15.642Z</time></trkpt><trkpt lat="45.7996609" lon="11.3589016"><ele>299.6666666666667</ele><time>2026-04-25T10:57:18.667Z</time></trkpt><trkpt lat="45.7995786" lon="11.3588644"><ele>300.33333333333337</ele><time>2026-04-25T10:57:21.682Z</time></trkpt><trkpt lat="45.799511" lon="11.358821"><ele>301.0</ele><time>2026-04-25T10:57:24.648Z</time></trkpt><trkpt lat="45.7994385" lon="11.3587724"><ele>301.6666666666667</ele><time>2026-04-25T10:57:27.691Z</time></trkpt><trkpt lat="45.7993708" lon="11.3587356"><ele>302.3333333333333</ele><time>2026-04-25T10:57:30.686Z</time></trkpt><trkpt lat="45.7992978" lon="11.3587024"><ele>303.0</ele><time>2026-04-25T10:57:33.668Z</time></trkpt><trkpt lat="45.7992346" lon="11.3586753"><ele>301.6666666666667</ele><time>2026-04-25T10:57:35.679Z</time></trkpt><trkpt lat="45.7991642" lon="11.3586517"><ele>300.3333333333333</ele><time>2026-04-25T10:57:38.686Z</time></trkpt><trkpt lat="45.7990875" lon="11.3586279"><ele>299.0</ele><time>2026-04-25T10:57:41.679Z</time></trkpt><trkpt lat="45.7990128" lon="11.3586193"><ele>297.66666666666663</ele><time>2026-04-25T10:57:44.662Z</time></trkpt><trkpt lat="45.7989353" lon="11.3586151"><ele>296.3333333333333</ele><time>2026-04-25T10:57:47.69Z</time></trkpt><trkpt lat="45.7988588" lon="11.3586085"><ele>295.0</ele><time>2026-04-25T10:57:50.732Z</time></trkpt><trkpt lat="45.7987845" lon="11.358604"><ele>295.0</ele><time>2026-04-25T10:57:53.672Z</time></trkpt><trkpt lat="45.7987125" lon="11.3586078"><ele>295.0</ele><time>2026-04-25T10:57:56.67Z</time></trkpt><trkpt lat="45.79864" lon="11.358606"><ele>295.0</ele><time>2026-04-25T10:57:59.609Z</time></trkpt><trkpt lat="45.7985635" lon="11.3586123"><ele>295.0</ele><time>2026-04-25T10:58:02.68Z</time></trkpt><trkpt lat="45.7984853" lon="11.3586287"><ele>295.0</ele><time>2026-04-25T10:58:05.683Z</time></trkpt><trkpt lat="45.7983989" lon="11.3586515"><ele>295.0</ele><time>2026-04-25T10:58:08.66Z</time></trkpt><trkpt lat="45.7983133" lon="11.3586841"><ele>294.16666666666663</ele><time>2026-04-25T10:58:11.686Z</time></trkpt><trkpt lat="45.7982434" lon="11.3587126"><ele>293.3333333333333</ele><time>2026-04-25T10:58:14.676Z</time></trkpt><trkpt lat="45.7981741" lon="11.3587521"><ele>292.5</ele><time>2026-04-25T10:58:17.684Z</time></trkpt><trkpt lat="45.7981059" lon="11.3587879"><ele>291.6666666666667</ele><time>2026-04-25T10:58:20.687Z</time></trkpt><trkpt lat="45.7980359" lon="11.3588198"><ele>290.83333333333337</ele><time>2026-04-25T10:58:23.713Z</time></trkpt><trkpt lat="45.7979603" lon="11.3588629"><ele>290.0</ele><time>2026-04-25T10:58:26.583Z</time></trkpt><trkpt lat="45.7978861" lon="11.3589102"><ele>290.6666666666667</ele><time>2026-04-25T10:58:29.672Z</time></trkpt><trkpt lat="45.7978097" lon="11.3589464"><ele>291.33333333333337</ele><time>2026-04-25T10:58:32.671Z</time></trkpt><trkpt lat="45.7977374" lon="11.3589737"><ele>292.0</ele><time>2026-04-25T10:58:35.591Z</time></trkpt><trkpt lat="45.7976655" lon="11.3590008"><ele>292.6666666666667</ele><time>2026-04-25T10:58:38.685Z</time></trkpt><trkpt lat="45.7975966" lon="11.35902"><ele>293.3333333333333</ele><time>2026-04-25T10:58:41.689Z</time></trkpt><trkpt lat="45.7975277" lon="11.3590341"><ele>294.0</ele><time>2026-04-25T10:58:44.615Z</time></trkpt><trkpt lat="45.7974452" lon="11.3590464"><ele>294.0</ele><time>2026-04-25T10:58:48.722Z</time></trkpt><trkpt lat="45.7973726" lon="11.3590879"><ele>294.0</ele><time>2026-04-25T10:58:52.687Z</time></trkpt><trkpt lat="45.7973094" lon="11.3591258"><ele>294.0</ele><time>2026-04-25T10:58:55.687Z</time></trkpt><trkpt lat="45.7972487" lon="11.3591722"><ele>294.0</ele><time>2026-04-25T10:58:58.644Z</time></trkpt><trkpt lat="45.7971909" lon="11.3592235"><ele>294.0</ele><time>2026-04-25T10:59:01.676Z</time></trkpt><trkpt lat="45.7971375" lon="11.3592875"><ele>294.0</ele><time>2026-04-25T10:59:04.616Z</time></trkpt><trkpt lat="45.7970784" lon="11.3593602"><ele>294.0</ele><time>2026-04-25T10:59:07.682Z</time></trkpt><trkpt lat="45.7970216" lon="11.3594269"><ele>294.0</ele><time>2026-04-25T10:59:10.593Z</time></trkpt><trkpt lat="45.796964" lon="11.3594902"><ele>294.0</ele><time>2026-04-25T10:59:13.694Z</time></trkpt><trkpt lat="45.7969126" lon="11.3595618"><ele>294.0</ele><time>2026-04-25T10:59:16.686Z</time></trkpt><trkpt lat="45.796862" lon="11.3596231"><ele>294.0</ele><time>2026-04-25T10:59:19.682Z</time></trkpt><trkpt lat="45.7968129" lon="11.3596892"><ele>294.0</ele><time>2026-04-25T10:59:22.689Z</time></trkpt><trkpt lat="45.7967702" lon="11.3597649"><ele>294.0</ele><time>2026-04-25T10:59:25.642Z</time></trkpt><trkpt lat="45.796728" lon="11.3598471"><ele>294.0</ele><time>2026-04-25T10:59:28.676Z</time></trkpt><trkpt lat="45.7966881" lon="11.3599282"><ele>294.8333333333333</ele><time>2026-04-25T10:59:31.617Z</time></trkpt><trkpt lat="45.796655" lon="11.3600138"><ele>295.6666666666667</ele><time>2026-04-25T10:59:34.426Z</time></trkpt><trkpt lat="45.7966129" lon="11.3601191"><ele>296.5</ele><time>2026-04-25T10:59:37.686Z</time></trkpt><trkpt lat="45.7965734" lon="11.3602127"><ele>297.33333333333337</ele><time>2026-04-25T10:59:40.688Z</time></trkpt><trkpt lat="45.7965386" lon="11.3603166"><ele>298.1666666666667</ele><time>2026-04-25T10:59:43.691Z</time></trkpt><trkpt lat="45.7965146" lon="11.36043"><ele>299.0</ele><time>2026-04-25T10:59:46.681Z</time></trkpt><trkpt lat="45.796493" lon="11.3605545"><ele>299.0</ele><time>2026-04-25T10:59:49.689Z</time></trkpt><trkpt lat="45.7964753" lon="11.3606818"><ele>299.0</ele><time>2026-04-25T10:59:52.68Z</time></trkpt><trkpt lat="45.7964599" lon="11.360813"><ele>299.0</ele><time>2026-04-25T10:59:55.689Z</time></trkpt><trkpt lat="45.7964414" lon="11.3609392"><ele>299.0</ele><time>2026-04-25T10:59:58.625Z</time></trkpt><trkpt lat="45.7964291" lon="11.3610293"><ele>299.0</ele><time>2026-04-25T11:00:00.702Z</time></trkpt><trkpt lat="45.7964138" lon="11.361156"><ele>299.0</ele><time>2026-04-25T11:00:03.689Z</time></trkpt><trkpt lat="45.796409" lon="11.3612834"><ele>298.83333333333337</ele><time>2026-04-25T11:00:06.688Z</time></trkpt><trkpt lat="45.7964061" lon="11.3613741"><ele>298.6666666666667</ele><time>2026-04-25T11:00:08.691Z</time></trkpt><trkpt lat="45.7964003" lon="11.3615044"><ele>298.5</ele><time>2026-04-25T11:00:11.67Z</time></trkpt><trkpt lat="45.7963948" lon="11.3616308"><ele>298.3333333333333</ele><time>2026-04-25T11:00:14.677Z</time></trkpt><trkpt lat="45.7963913" lon="11.361756"><ele>298.16666666666663</ele><time>2026-04-25T11:00:17.671Z</time></trkpt><trkpt lat="45.7963985" lon="11.3618756"><ele>298.0</ele><time>2026-04-25T11:00:20.698Z</time></trkpt><trkpt lat="45.7964042" lon="11.361994"><ele>298.0</ele><time>2026-04-25T11:00:23.679Z</time></trkpt><trkpt lat="45.7964035" lon="11.3621215"><ele>298.0</ele><time>2026-04-25T11:00:26.682Z</time></trkpt><trkpt lat="45.7964025" lon="11.3622485"><ele>298.0</ele><time>2026-04-25T11:00:29.627Z</time></trkpt><trkpt lat="45.7964013" lon="11.3623759"><ele>298.0</ele><time>2026-04-25T11:00:32.672Z</time></trkpt><trkpt lat="45.7963989" lon="11.3624839"><ele>298.0</ele><time>2026-04-25T11:00:35.613Z</time></trkpt><trkpt lat="45.7964013" lon="11.362603"><ele>298.0</ele><time>2026-04-25T11:00:38.684Z</time></trkpt><trkpt lat="45.7964071" lon="11.362726"><ele>298.0</ele><time>2026-04-25T11:00:41.583Z</time></trkpt><trkpt lat="45.7964091" lon="11.3628421"><ele>298.0</ele><time>2026-04-25T11:00:44.685Z</time></trkpt><trkpt lat="45.7964135" lon="11.3629578"><ele>298.0</ele><time>2026-04-25T11:00:47.686Z</time></trkpt><trkpt lat="45.7964132" lon="11.3630776"><ele>298.0</ele><time>2026-04-25T11:00:50.67Z</time></trkpt><trkpt lat="45.7964071" lon="11.3631989"><ele>298.0</ele><time>2026-04-25T11:00:53.696Z</time></trkpt><trkpt lat="45.7964047" lon="11.363312"><ele>298.0</ele><time>2026-04-25T11:00:56.642Z</time></trkpt><trkpt lat="45.7964075" lon="11.363432"><ele>297.16666666666663</ele><time>2026-04-25T11:00:59.688Z</time></trkpt><trkpt lat="45.7963975" lon="11.3635598"><ele>296.3333333333333</ele><time>2026-04-25T11:01:02.677Z</time></trkpt><trkpt lat="45.7963914" lon="11.3636665"><ele>295.5</ele><time>2026-04-25T11:01:05.626Z</time></trkpt><trkpt lat="45.7963841" lon="11.3637587"><ele>294.6666666666667</ele><time>2026-04-25T11:01:07.675Z</time></trkpt><trkpt lat="45.7963765" lon="11.3638656"><ele>293.83333333333337</ele><time>2026-04-25T11:01:10.688Z</time></trkpt><trkpt lat="45.7963631" lon="11.3639889"><ele>293.0</ele><time>2026-04-25T11:01:13.608Z</time></trkpt><trkpt lat="45.7963586" lon="11.3641039"><ele>292.33333333333337</ele><time>2026-04-25T11:01:16.678Z</time></trkpt><trkpt lat="45.7963523" lon="11.3642133"><ele>291.6666666666667</ele><time>2026-04-25T11:01:19.684Z</time></trkpt><trkpt lat="45.7963445" lon="11.3643204"><ele>291.0</ele><time>2026-04-25T11:01:22.599Z</time></trkpt><trkpt lat="45.7963288" lon="11.3644344"><ele>290.3333333333333</ele><time>2026-04-25T11:01:25.687Z</time></trkpt><trkpt lat="45.796313" lon="11.3645358"><ele>289.66666666666663</ele><time>2026-04-25T11:01:28.685Z</time></trkpt><trkpt lat="45.7962883" lon="11.3646385"><ele>289.0</ele><time>2026-04-25T11:01:31.665Z</time></trkpt><trkpt lat="45.7962668" lon="11.3647354"><ele>288.5</ele><time>2026-04-25T11:01:34.684Z</time></trkpt><trkpt lat="45.7962427" lon="11.3648536"><ele>288.0</ele><time>2026-04-25T11:01:38.687Z</time></trkpt><trkpt lat="45.7962218" lon="11.3649685"><ele>287.5</ele><time>2026-04-25T11:01:42.598Z</time></trkpt><trkpt lat="45.7961977" lon="11.3650743"><ele>287.0</ele><time>2026-04-25T11:01:45.685Z</time></trkpt><trkpt lat="45.796173" lon="11.3651801"><ele>286.5</ele><time>2026-04-25T11:01:48.68Z</time></trkpt><trkpt lat="45.7961567" lon="11.3652868"><ele>286.0</ele><time>2026-04-25T11:01:51.688Z</time></trkpt><trkpt lat="45.796139" lon="11.3653904"><ele>285.99999999999994</ele><time>2026-04-25T11:01:54.681Z</time></trkpt><trkpt lat="45.7961174" lon="11.3655017"><ele>286.0</ele><time>2026-04-25T11:01:57.664Z</time></trkpt><trkpt lat="45.7960897" lon="11.3656039"><ele>286.0</ele><time>2026-04-25T11:02:00.672Z</time></trkpt><trkpt lat="45.7960636" lon="11.3657043"><ele>286.0</ele><time>2026-04-25T11:02:03.601Z</time></trkpt><trkpt lat="45.7960308" lon="11.3657965"><ele>286.0</ele><time>2026-04-25T11:02:06.672Z</time></trkpt><trkpt lat="45.7959964" lon="11.3658845"><ele>285.99999999999994</ele><time>2026-04-25T11:02:09.676Z</time></trkpt><trkpt lat="45.7959703" lon="11.3659712"><ele>286.0</ele><time>2026-04-25T11:02:12.681Z</time></trkpt><trkpt lat="45.7959576" lon="11.3660639"><ele>286.8333333333333</ele><time>2026-04-25T11:02:15.684Z</time></trkpt><trkpt lat="45.7959427" lon="11.3661711"><ele>287.66666666666663</ele><time>2026-04-25T11:02:18.627Z</time></trkpt><trkpt lat="45.7959203" lon="11.3662857"><ele>288.5</ele><time>2026-04-25T11:02:21.682Z</time></trkpt><trkpt lat="45.7959002" lon="11.3663901"><ele>289.3333333333333</ele><time>2026-04-25T11:02:24.674Z</time></trkpt><trkpt lat="45.7958787" lon="11.3664982"><ele>290.1666666666667</ele><time>2026-04-25T11:02:27.588Z</time></trkpt><trkpt lat="45.7958573" lon="11.3666079"><ele>291.0</ele><time>2026-04-25T11:02:30.662Z</time></trkpt><trkpt lat="45.7958452" lon="11.3667177"><ele>291.0</ele><time>2026-04-25T11:02:33.672Z</time></trkpt><trkpt lat="45.7958416" lon="11.3668305"><ele>291.0</ele><time>2026-04-25T11:02:36.675Z</time></trkpt><trkpt lat="45.7958219" lon="11.3669389"><ele>291.0</ele><time>2026-04-25T11:02:39.684Z</time></trkpt><trkpt lat="45.7958012" lon="11.3670467"><ele>291.0</ele><time>2026-04-25T11:02:42.685Z</time></trkpt><trkpt lat="45.7957793" lon="11.3671588"><ele>291.0</ele><time>2026-04-25T11:02:45.678Z</time></trkpt><trkpt lat="45.7957558" lon="11.3672643"><ele>291.0</ele><time>2026-04-25T11:02:48.687Z</time></trkpt><trkpt lat="45.7957349" lon="11.3673622"><ele>290.7142857142857</ele><time>2026-04-25T11:02:51.689Z</time></trkpt><trkpt lat="45.7957154" lon="11.3674632"><ele>290.4285714285714</ele><time>2026-04-25T11:02:54.707Z</time></trkpt><trkpt lat="45.7956836" lon="11.3675415"><ele>290.1428571428571</ele><time>2026-04-25T11:02:57.679Z</time></trkpt><trkpt lat="45.795659" lon="11.3676289"><ele>289.85714285714283</ele><time>2026-04-25T11:03:00.685Z</time></trkpt><trkpt lat="45.7956413" lon="11.3677199"><ele>289.57142857142856</ele><time>2026-04-25T11:03:03.68Z</time></trkpt><trkpt lat="45.7956179" lon="11.3678185"><ele>289.2857142857143</ele><time>2026-04-25T11:03:06.703Z</time></trkpt><trkpt lat="45.795595" lon="11.3679153"><ele>289.0</ele><time>2026-04-25T11:03:09.686Z</time></trkpt><trkpt lat="45.7955798" lon="11.3680135"><ele>289.5</ele><time>2026-04-25T11:03:12.627Z</time></trkpt><trkpt lat="45.7955595" lon="11.3681128"><ele>290.0</ele><time>2026-04-25T11:03:15.682Z</time></trkpt><trkpt lat="45.7955387" lon="11.3682154"><ele>290.5</ele><time>2026-04-25T11:03:18.599Z</time></trkpt><trkpt lat="45.7955107" lon="11.368344"><ele>291.0</ele><time>2026-04-25T11:03:21.676Z</time></trkpt><trkpt lat="45.7954843" lon="11.3684587"><ele>291.5</ele><time>2026-04-25T11:03:25.605Z</time></trkpt><trkpt lat="45.7954655" lon="11.3685723"><ele>292.0</ele><time>2026-04-25T11:03:29.669Z</time></trkpt><trkpt lat="45.7954304" lon="11.3686838"><ele>292.0</ele><time>2026-04-25T11:03:33.683Z</time></trkpt><trkpt lat="45.7954132" lon="11.3687844"><ele>292.0</ele><time>2026-04-25T11:03:36.683Z</time></trkpt><trkpt lat="45.7953906" lon="11.3688817"><ele>292.0</ele><time>2026-04-25T11:03:39.662Z</time></trkpt><trkpt lat="45.7953578" lon="11.3689678"><ele>292.0</ele><time>2026-04-25T11:03:42.682Z</time></trkpt><trkpt lat="45.7953268" lon="11.3690474"><ele>292.0</ele><time>2026-04-25T11:03:45.666Z</time></trkpt><trkpt lat="45.7953184" lon="11.3691397"><ele>292.0</ele><time>2026-04-25T11:03:48.67Z</time></trkpt><trkpt lat="45.7953028" lon="11.3692391"><ele>292.0</ele><time>2026-04-25T11:03:51.665Z</time></trkpt><trkpt lat="45.7952666" lon="11.3693297"><ele>291.3333333333333</ele><time>2026-04-25T11:03:54.681Z</time></trkpt><trkpt lat="45.7952456" lon="11.3694256"><ele>290.66666666666663</ele><time>2026-04-25T11:03:57.662Z</time></trkpt><trkpt lat="45.79525" lon="11.3695381"><ele>290.0</ele><time>2026-04-25T11:04:01.686Z</time></trkpt><trkpt lat="45.7952005" lon="11.3696365"><ele>289.3333333333333</ele><time>2026-04-25T11:04:04.694Z</time></trkpt><trkpt lat="45.7951701" lon="11.3697487"><ele>288.6666666666667</ele><time>2026-04-25T11:04:07.684Z</time></trkpt><trkpt lat="45.7951442" lon="11.369859"><ele>288.0</ele><time>2026-04-25T11:04:10.611Z</time></trkpt><trkpt lat="45.7951135" lon="11.3699641"><ele>288.1666666666667</ele><time>2026-04-25T11:04:13.69Z</time></trkpt><trkpt lat="45.7950841" lon="11.3700664"><ele>288.3333333333333</ele><time>2026-04-25T11:04:16.679Z</time></trkpt><trkpt lat="45.7950606" lon="11.3701716"><ele>288.5</ele><time>2026-04-25T11:04:19.687Z</time></trkpt><trkpt lat="45.7950468" lon="11.3702674"><ele>288.66666666666663</ele><time>2026-04-25T11:04:21.674Z</time></trkpt><trkpt lat="45.795029" lon="11.3703625"><ele>288.8333333333333</ele><time>2026-04-25T11:04:24.6Z</time></trkpt><trkpt lat="45.7950036" lon="11.3704831"><ele>289.0</ele><time>2026-04-25T11:04:27.696Z</time></trkpt><trkpt lat="45.7949747" lon="11.3705987"><ele>289.0</ele><time>2026-04-25T11:04:30.617Z</time></trkpt><trkpt lat="45.794932" lon="11.3706996"><ele>289.0</ele><time>2026-04-25T11:04:33.688Z</time></trkpt><trkpt lat="45.7948953" lon="11.3707973"><ele>289.0</ele><time>2026-04-25T11:04:36.596Z</time></trkpt><trkpt lat="45.7948611" lon="11.3709089"><ele>289.0</ele><time>2026-04-25T11:04:39.682Z</time></trkpt><trkpt lat="45.7948199" lon="11.3710261"><ele>289.0</ele><time>2026-04-25T11:04:42.679Z</time></trkpt><trkpt lat="45.7947817" lon="11.3711312"><ele>289.0</ele><time>2026-04-25T11:04:45.662Z</time></trkpt><trkpt lat="45.7947541" lon="11.3712353"><ele>289.0</ele><time>2026-04-25T11:04:48.681Z</time></trkpt><trkpt lat="45.7947214" lon="11.3713315"><ele>289.0</ele><time>2026-04-25T11:04:51.614Z</time></trkpt><trkpt lat="45.7946707" lon="11.3714202"><ele>289.0</ele><time>2026-04-25T11:04:54.696Z</time></trkpt><trkpt lat="45.7946263" lon="11.3715069"><ele>289.0</ele><time>2026-04-25T11:04:57.59Z</time></trkpt><trkpt lat="45.7945804" lon="11.3716027"><ele>289.0</ele><time>2026-04-25T11:05:00.684Z</time></trkpt><trkpt lat="45.7945284" lon="11.3716989"><ele>289.0</ele><time>2026-04-25T11:05:03.688Z</time></trkpt><trkpt lat="45.794476" lon="11.3717917"><ele>288.8333333333333</ele><time>2026-04-25T11:05:06.667Z</time></trkpt><trkpt lat="45.7944217" lon="11.3718671"><ele>288.66666666666663</ele><time>2026-04-25T11:05:09.675Z</time></trkpt><trkpt lat="45.794365" lon="11.3719411"><ele>288.5</ele><time>2026-04-25T11:05:12.686Z</time></trkpt><trkpt lat="45.7943123" lon="11.3720092"><ele>288.3333333333333</ele><time>2026-04-25T11:05:15.35Z</time></trkpt><trkpt lat="45.7942501" lon="11.3720794"><ele>288.1666666666667</ele><time>2026-04-25T11:05:18.674Z</time></trkpt><trkpt lat="45.7941884" lon="11.3721448"><ele>288.0</ele><time>2026-04-25T11:05:21.679Z</time></trkpt><trkpt lat="45.7941293" lon="11.3722053"><ele>288.00000000000006</ele><time>2026-04-25T11:05:24.664Z</time></trkpt><trkpt lat="45.7940823" lon="11.3722678"><ele>288.0</ele><time>2026-04-25T11:05:27.688Z</time></trkpt><trkpt lat="45.7940341" lon="11.3723371"><ele>288.0</ele><time>2026-04-25T11:05:31.686Z</time></trkpt><trkpt lat="45.7939635" lon="11.3723855"><ele>288.0</ele><time>2026-04-25T11:05:36.674Z</time></trkpt><trkpt lat="45.7939035" lon="11.3724375"><ele>288.0</ele><time>2026-04-25T11:05:40.685Z</time></trkpt><trkpt lat="45.7938499" lon="11.3724941"><ele>288.00000000000006</ele><time>2026-04-25T11:05:44.68Z</time></trkpt><trkpt lat="45.7938096" lon="11.3725648"><ele>288.0</ele><time>2026-04-25T11:05:47.619Z</time></trkpt><trkpt lat="45.7937623" lon="11.3726371"><ele>288.0</ele><time>2026-04-25T11:05:50.679Z</time></trkpt><trkpt lat="45.7937015" lon="11.3727104"><ele>288.0</ele><time>2026-04-25T11:05:53.68Z</time></trkpt><trkpt lat="45.7936401" lon="11.3727828"><ele>288.0</ele><time>2026-04-25T11:05:56.661Z</time></trkpt><trkpt lat="45.7935762" lon="11.3728497"><ele>288.0</ele><time>2026-04-25T11:05:59.694Z</time></trkpt><trkpt lat="45.7935177" lon="11.3729214"><ele>288.0</ele><time>2026-04-25T11:06:02.601Z</time></trkpt><trkpt lat="45.7934595" lon="11.3729948"><ele>288.0</ele><time>2026-04-25T11:06:05.681Z</time></trkpt><trkpt lat="45.7934121" lon="11.3730611"><ele>289.0</ele><time>2026-04-25T11:06:08.681Z</time></trkpt><trkpt lat="45.7933694" lon="11.3731336"><ele>290.0</ele><time>2026-04-25T11:06:11.596Z</time></trkpt><trkpt lat="45.7933145" lon="11.3732196"><ele>291.0</ele><time>2026-04-25T11:06:14.685Z</time></trkpt><trkpt lat="45.7932523" lon="11.37329"><ele>292.0</ele><time>2026-04-25T11:06:17.677Z</time></trkpt><trkpt lat="45.793185" lon="11.3733658"><ele>293.0</ele><time>2026-04-25T11:06:20.68Z</time></trkpt><trkpt lat="45.7931214" lon="11.3734343"><ele>294.0</ele><time>2026-04-25T11:06:23.682Z</time></trkpt><trkpt lat="45.7930598" lon="11.3735139"><ele>294.0</ele><time>2026-04-25T11:06:26.679Z</time></trkpt><trkpt lat="45.7930023" lon="11.3735961"><ele>294.0</ele><time>2026-04-25T11:06:29.592Z</time></trkpt><trkpt lat="45.7929506" lon="11.373681"><ele>294.0</ele><time>2026-04-25T11:06:32.685Z</time></trkpt><trkpt lat="45.7929031" lon="11.3737673"><ele>294.0</ele><time>2026-04-25T11:06:35.679Z</time></trkpt><trkpt lat="45.7928539" lon="11.3738512"><ele>294.0</ele><time>2026-04-25T11:06:38.599Z</time></trkpt><trkpt lat="45.7927934" lon="11.3739227"><ele>294.0</ele><time>2026-04-25T11:06:41.677Z</time></trkpt><trkpt lat="45.7927348" lon="11.3739878"><ele>294.0</ele><time>2026-04-25T11:06:44.697Z</time></trkpt><trkpt lat="45.7926813" lon="11.3740442"><ele>294.0</ele><time>2026-04-25T11:06:47.62Z</time></trkpt><trkpt lat="45.792629" lon="11.3740945"><ele>294.0</ele><time>2026-04-25T11:06:50.683Z</time></trkpt><trkpt lat="45.792579" lon="11.3741547"><ele>294.0</ele><time>2026-04-25T11:06:53.688Z</time></trkpt><trkpt lat="45.7925291" lon="11.3742213"><ele>294.0</ele><time>2026-04-25T11:06:56.647Z</time></trkpt><trkpt lat="45.7924712" lon="11.3742974"><ele>294.0</ele><time>2026-04-25T11:06:59.68Z</time></trkpt><trkpt lat="45.792409" lon="11.3743812"><ele>294.0</ele><time>2026-04-25T11:07:02.686Z</time></trkpt><trkpt lat="45.7923389" lon="11.3744651"><ele>294.0</ele><time>2026-04-25T11:07:05.679Z</time></trkpt><trkpt lat="45.7922767" lon="11.3745519"><ele>294.0</ele><time>2026-04-25T11:07:08.692Z</time></trkpt><trkpt lat="45.7922153" lon="11.3746424"><ele>294.0</ele><time>2026-04-25T11:07:11.677Z</time></trkpt><trkpt lat="45.7921564" lon="11.3747279"><ele>294.0</ele><time>2026-04-25T11:07:14.67Z</time></trkpt><trkpt lat="45.7921069" lon="11.374821"><ele>294.0</ele><time>2026-04-25T11:07:17.682Z</time></trkpt><trkpt lat="45.792059" lon="11.3749028"><ele>294.0</ele><time>2026-04-25T11:07:20.681Z</time></trkpt><trkpt lat="45.7920119" lon="11.3749832"><ele>293.7142857142857</ele><time>2026-04-25T11:07:23.597Z</time></trkpt><trkpt lat="45.7919608" lon="11.3750627"><ele>293.42857142857144</ele><time>2026-04-25T11:07:26.683Z</time></trkpt><trkpt lat="45.7919137" lon="11.3751373"><ele>293.1428571428571</ele><time>2026-04-25T11:07:29.683Z</time></trkpt><trkpt lat="45.7918685" lon="11.3752068"><ele>292.8571428571429</ele><time>2026-04-25T11:07:32.576Z</time></trkpt><trkpt lat="45.7918249" lon="11.375292"><ele>292.57142857142856</ele><time>2026-04-25T11:07:35.685Z</time></trkpt><trkpt lat="45.7917835" lon="11.3753858"><ele>292.2857142857143</ele><time>2026-04-25T11:07:38.643Z</time></trkpt><trkpt lat="45.7917353" lon="11.3754807"><ele>292.0</ele><time>2026-04-25T11:07:41.67Z</time></trkpt><trkpt lat="45.7916906" lon="11.3755727"><ele>291.66666666666663</ele><time>2026-04-25T11:07:44.675Z</time></trkpt><trkpt lat="45.7916488" lon="11.3756568"><ele>291.3333333333333</ele><time>2026-04-25T11:07:47.597Z</time></trkpt><trkpt lat="45.791587" lon="11.3757246"><ele>291.0</ele><time>2026-04-25T11:07:50.683Z</time></trkpt><trkpt lat="45.7915206" lon="11.3757935"><ele>290.6666666666667</ele><time>2026-04-25T11:07:53.677Z</time></trkpt><trkpt lat="45.7914505" lon="11.3758604"><ele>290.33333333333337</ele><time>2026-04-25T11:07:56.69Z</time></trkpt><trkpt lat="45.7913905" lon="11.3759315"><ele>290.0</ele><time>2026-04-25T11:07:59.675Z</time></trkpt><trkpt lat="45.7913374" lon="11.3760148"><ele>290.0</ele><time>2026-04-25T11:08:02.686Z</time></trkpt><trkpt lat="45.7912937" lon="11.3761042"><ele>290.0</ele><time>2026-04-25T11:08:05.681Z</time></trkpt><trkpt lat="45.7912579" lon="11.3761997"><ele>290.0</ele><time>2026-04-25T11:08:08.677Z</time></trkpt><trkpt lat="45.7912155" lon="11.3762842"><ele>290.0</ele><time>2026-04-25T11:08:11.608Z</time></trkpt><trkpt lat="45.7911854" lon="11.3763797"><ele>290.0</ele><time>2026-04-25T11:08:14.676Z</time></trkpt><trkpt lat="45.7911458" lon="11.3764731"><ele>290.0</ele><time>2026-04-25T11:08:17.686Z</time></trkpt><trkpt lat="45.7911119" lon="11.37657"><ele>290.0</ele><time>2026-04-25T11:08:20.673Z</time></trkpt><trkpt lat="45.7910614" lon="11.3766657"><ele>290.0</ele><time>2026-04-25T11:08:23.671Z</time></trkpt><trkpt lat="45.791003" lon="11.3767534"><ele>290.0</ele><time>2026-04-25T11:08:26.618Z</time></trkpt><trkpt lat="45.7909734" lon="11.376836"><ele>290.0</ele><time>2026-04-25T11:08:28.675Z</time></trkpt><trkpt lat="45.7909456" lon="11.3769171"><ele>290.0</ele><time>2026-04-25T11:08:30.68Z</time></trkpt><trkpt lat="45.7909057" lon="11.3769893"><ele>290.0</ele><time>2026-04-25T11:08:32.599Z</time></trkpt><trkpt lat="45.7908563" lon="11.3770558"><ele>290.0</ele><time>2026-04-25T11:08:34.685Z</time></trkpt><trkpt lat="45.7908082" lon="11.3771561"><ele>290.0</ele><time>2026-04-25T11:08:37.68Z</time></trkpt><trkpt lat="45.7907636" lon="11.3772452"><ele>289.7142857142857</ele><time>2026-04-25T11:08:40.676Z</time></trkpt><trkpt lat="45.7907187" lon="11.3773254"><ele>289.42857142857144</ele><time>2026-04-25T11:08:43.683Z</time></trkpt><trkpt lat="45.7906835" lon="11.3774062"><ele>289.14285714285717</ele><time>2026-04-25T11:08:46.68Z</time></trkpt><trkpt lat="45.7906455" lon="11.3774907"><ele>288.8571428571429</ele><time>2026-04-25T11:08:49.668Z</time></trkpt><trkpt lat="45.7906113" lon="11.3775702"><ele>288.57142857142856</ele><time>2026-04-25T11:08:52.676Z</time></trkpt><trkpt lat="45.7905742" lon="11.3776591"><ele>288.28571428571433</ele><time>2026-04-25T11:08:55.666Z</time></trkpt><trkpt lat="45.7905255" lon="11.3777401"><ele>288.0</ele><time>2026-04-25T11:08:58.683Z</time></trkpt><trkpt lat="45.7904833" lon="11.3778273"><ele>288.0</ele><time>2026-04-25T11:09:01.668Z</time></trkpt><trkpt lat="45.7904426" lon="11.3779193"><ele>288.0</ele><time>2026-04-25T11:09:04.668Z</time></trkpt><trkpt lat="45.7904026" lon="11.3780097"><ele>288.0</ele><time>2026-04-25T11:09:07.647Z</time></trkpt><trkpt lat="45.7903628" lon="11.3781069"><ele>288.0</ele><time>2026-04-25T11:09:10.673Z</time></trkpt><trkpt lat="45.7903146" lon="11.3782037"><ele>288.0</ele><time>2026-04-25T11:09:13.627Z</time></trkpt><trkpt lat="45.7902709" lon="11.3782948"><ele>288.0</ele><time>2026-04-25T11:09:16.684Z</time></trkpt><trkpt lat="45.7902279" lon="11.3784019"><ele>287.7142857142857</ele><time>2026-04-25T11:09:19.685Z</time></trkpt><trkpt lat="45.7901808" lon="11.378498"><ele>287.42857142857144</ele><time>2026-04-25T11:09:22.681Z</time></trkpt><trkpt lat="45.7901321" lon="11.3785811"><ele>287.1428571428571</ele><time>2026-04-25T11:09:25.676Z</time></trkpt><trkpt lat="45.7900892" lon="11.3786676"><ele>286.8571428571429</ele><time>2026-04-25T11:09:28.682Z</time></trkpt><trkpt lat="45.7900476" lon="11.3787456"><ele>286.57142857142856</ele><time>2026-04-25T11:09:31.677Z</time></trkpt><trkpt lat="45.7900033" lon="11.3788223"><ele>286.2857142857143</ele><time>2026-04-25T11:09:34.606Z</time></trkpt><trkpt lat="45.7899588" lon="11.3789106"><ele>286.0</ele><time>2026-04-25T11:09:37.688Z</time></trkpt><trkpt lat="45.7899191" lon="11.379003"><ele>285.8333333333333</ele><time>2026-04-25T11:09:40.641Z</time></trkpt><trkpt lat="45.7898801" lon="11.3791035"><ele>285.66666666666663</ele><time>2026-04-25T11:09:43.678Z</time></trkpt><trkpt lat="45.7898378" lon="11.3792001"><ele>285.5</ele><time>2026-04-25T11:09:46.643Z</time></trkpt><trkpt lat="45.7897926" lon="11.3792994"><ele>285.3333333333333</ele><time>2026-04-25T11:09:49.688Z</time></trkpt><trkpt lat="45.7897494" lon="11.3793998"><ele>285.1666666666667</ele><time>2026-04-25T11:09:52.646Z</time></trkpt><trkpt lat="45.7897034" lon="11.3795043"><ele>285.0</ele><time>2026-04-25T11:09:55.677Z</time></trkpt><trkpt lat="45.7896546" lon="11.3796079"><ele>284.3333333333333</ele><time>2026-04-25T11:09:58.684Z</time></trkpt><trkpt lat="45.7896016" lon="11.3797077"><ele>283.6666666666667</ele><time>2026-04-25T11:10:01.686Z</time></trkpt><trkpt lat="45.7895524" lon="11.3798083"><ele>283.0</ele><time>2026-04-25T11:10:04.644Z</time></trkpt><trkpt lat="45.7894995" lon="11.3799131"><ele>282.33333333333337</ele><time>2026-04-25T11:10:07.68Z</time></trkpt><trkpt lat="45.7894602" lon="11.380007"><ele>281.6666666666667</ele><time>2026-04-25T11:10:10.326Z</time></trkpt><trkpt lat="45.7894324" lon="11.3800939"><ele>281.0</ele><time>2026-04-25T11:10:12.673Z</time></trkpt><trkpt lat="45.7893878" lon="11.3801981"><ele>281.5</ele><time>2026-04-25T11:10:15.641Z</time></trkpt><trkpt lat="45.7893352" lon="11.3803019"><ele>282.0</ele><time>2026-04-25T11:10:18.681Z</time></trkpt><trkpt lat="45.7892833" lon="11.3804033"><ele>282.5</ele><time>2026-04-25T11:10:21.643Z</time></trkpt><trkpt lat="45.7892417" lon="11.3804767"><ele>283.0</ele><time>2026-04-25T11:10:23.691Z</time></trkpt><trkpt lat="45.7891958" lon="11.3805764"><ele>283.5</ele><time>2026-04-25T11:10:26.621Z</time></trkpt><trkpt lat="45.7891506" lon="11.3806783"><ele>284.0</ele><time>2026-04-25T11:10:29.676Z</time></trkpt><trkpt lat="45.7891011" lon="11.3807755"><ele>284.0</ele><time>2026-04-25T11:10:32.648Z</time></trkpt><trkpt lat="45.789067" lon="11.3808637"><ele>284.0</ele><time>2026-04-25T11:10:34.683Z</time></trkpt><trkpt lat="45.7890256" lon="11.380968"><ele>284.0</ele><time>2026-04-25T11:10:37.602Z</time></trkpt><trkpt lat="45.7889814" lon="11.3810784"><ele>284.0</ele><time>2026-04-25T11:10:40.681Z</time></trkpt><trkpt lat="45.7889394" lon="11.381171"><ele>284.0</ele><time>2026-04-25T11:10:43.645Z</time></trkpt><trkpt lat="45.788897" lon="11.3812585"><ele>284.0</ele><time>2026-04-25T11:10:46.683Z</time></trkpt><trkpt lat="45.7888539" lon="11.3813354"><ele>283.57142857142856</ele><time>2026-04-25T11:10:49.672Z</time></trkpt><trkpt lat="45.7888014" lon="11.3814216"><ele>283.1428571428571</ele><time>2026-04-25T11:10:53.643Z</time></trkpt><trkpt lat="45.788768" lon="11.3815003"><ele>282.7142857142857</ele><time>2026-04-25T11:10:56.683Z</time></trkpt><trkpt lat="45.7887266" lon="11.3815981"><ele>282.2857142857143</ele><time>2026-04-25T11:10:59.689Z</time></trkpt><trkpt lat="45.7886827" lon="11.3817074"><ele>281.8571428571429</ele><time>2026-04-25T11:11:02.643Z</time></trkpt><trkpt lat="45.7886476" lon="11.3817922"><ele>281.42857142857144</ele><time>2026-04-25T11:11:04.675Z</time></trkpt><trkpt lat="45.7886126" lon="11.3818719"><ele>281.0</ele><time>2026-04-25T11:11:06.678Z</time></trkpt><trkpt lat="45.7885595" lon="11.3819785"><ele>281.1666666666667</ele><time>2026-04-25T11:11:09.678Z</time></trkpt><trkpt lat="45.7885084" lon="11.3820765"><ele>281.33333333333337</ele><time>2026-04-25T11:11:12.617Z</time></trkpt><trkpt lat="45.7884511" lon="11.3821622"><ele>281.5</ele><time>2026-04-25T11:11:15.68Z</time></trkpt><trkpt lat="45.7884074" lon="11.3822461"><ele>281.6666666666667</ele><time>2026-04-25T11:11:18.678Z</time></trkpt><trkpt lat="45.7883882" lon="11.3823481"><ele>281.8333333333333</ele><time>2026-04-25T11:11:21.611Z</time></trkpt><trkpt lat="45.7883494" lon="11.3824463"><ele>282.0</ele><time>2026-04-25T11:11:24.689Z</time></trkpt><trkpt lat="45.7883075" lon="11.3825334"><ele>282.1666666666667</ele><time>2026-04-25T11:11:27.602Z</time></trkpt><trkpt lat="45.7882521" lon="11.3826243"><ele>282.3333333333333</ele><time>2026-04-25T11:11:30.68Z</time></trkpt><trkpt lat="45.7881989" lon="11.3827157"><ele>282.5</ele><time>2026-04-25T11:11:33.686Z</time></trkpt><trkpt lat="45.7881445" lon="11.3827979"><ele>282.66666666666663</ele><time>2026-04-25T11:11:36.68Z</time></trkpt><trkpt lat="45.7880886" lon="11.3828622"><ele>282.8333333333333</ele><time>2026-04-25T11:11:39.601Z</time></trkpt><trkpt lat="45.7880325" lon="11.38292"><ele>283.0</ele><time>2026-04-25T11:11:42.684Z</time></trkpt><trkpt lat="45.7879832" lon="11.3829834"><ele>282.57142857142856</ele><time>2026-04-25T11:11:45.606Z</time></trkpt><trkpt lat="45.7879396" lon="11.3830573"><ele>282.14285714285717</ele><time>2026-04-25T11:11:48.672Z</time></trkpt><trkpt lat="45.7878884" lon="11.3831236"><ele>281.7142857142857</ele><time>2026-04-25T11:11:51.671Z</time></trkpt><trkpt lat="45.7878375" lon="11.3831991"><ele>281.2857142857143</ele><time>2026-04-25T11:11:54.643Z</time></trkpt><trkpt lat="45.7877852" lon="11.3832845"><ele>280.8571428571429</ele><time>2026-04-25T11:11:57.682Z</time></trkpt><trkpt lat="45.787733" lon="11.3833751"><ele>280.42857142857144</ele><time>2026-04-25T11:12:00.688Z</time></trkpt><trkpt lat="45.7876809" lon="11.3834588"><ele>280.0</ele><time>2026-04-25T11:12:03.679Z</time></trkpt><trkpt lat="45.787622" lon="11.3835415"><ele>280.8333333333333</ele><time>2026-04-25T11:12:06.67Z</time></trkpt><trkpt lat="45.7875542" lon="11.3836242"><ele>281.66666666666663</ele><time>2026-04-25T11:12:09.675Z</time></trkpt><trkpt lat="45.7874897" lon="11.3837102"><ele>282.5</ele><time>2026-04-25T11:12:12.686Z</time></trkpt><trkpt lat="45.7874283" lon="11.3837888"><ele>283.3333333333333</ele><time>2026-04-25T11:12:15.673Z</time></trkpt><trkpt lat="45.7873656" lon="11.3838565"><ele>284.1666666666667</ele><time>2026-04-25T11:12:18.61Z</time></trkpt><trkpt lat="45.7873027" lon="11.3839462"><ele>285.0</ele><time>2026-04-25T11:12:21.678Z</time></trkpt><trkpt lat="45.7872418" lon="11.3840395"><ele>285.0</ele><time>2026-04-25T11:12:24.677Z</time></trkpt><trkpt lat="45.7871914" lon="11.3841308"><ele>285.0</ele><time>2026-04-25T11:12:27.607Z</time></trkpt><trkpt lat="45.7871447" lon="11.3842385"><ele>285.0</ele><time>2026-04-25T11:12:30.678Z</time></trkpt><trkpt lat="45.7870865" lon="11.3843323"><ele>285.0</ele><time>2026-04-25T11:12:33.666Z</time></trkpt><trkpt lat="45.7870265" lon="11.3844227"><ele>285.0</ele><time>2026-04-25T11:12:36.606Z</time></trkpt><trkpt lat="45.7869678" lon="11.3845124"><ele>285.0</ele><time>2026-04-25T11:12:39.686Z</time></trkpt><trkpt lat="45.7869142" lon="11.3845934"><ele>285.0</ele><time>2026-04-25T11:12:42.679Z</time></trkpt><trkpt lat="45.7868604" lon="11.3846722"><ele>285.0</ele><time>2026-04-25T11:12:45.623Z</time></trkpt><trkpt lat="45.7868031" lon="11.3847557"><ele>285.0</ele><time>2026-04-25T11:12:48.686Z</time></trkpt><trkpt lat="45.7867455" lon="11.3848377"><ele>285.0</ele><time>2026-04-25T11:12:51.686Z</time></trkpt><trkpt lat="45.7866881" lon="11.3849213"><ele>285.0</ele><time>2026-04-25T11:12:54.666Z</time></trkpt><trkpt lat="45.7866317" lon="11.3849952"><ele>285.0</ele><time>2026-04-25T11:12:57.683Z</time></trkpt><trkpt lat="45.7865896" lon="11.3850637"><ele>283.85714285714283</ele><time>2026-04-25T11:13:00.69Z</time></trkpt><trkpt lat="45.7865376" lon="11.3851291"><ele>282.7142857142857</ele><time>2026-04-25T11:13:03.697Z</time></trkpt><trkpt lat="45.7864819" lon="11.3851994"><ele>281.57142857142856</ele><time>2026-04-25T11:13:06.686Z</time></trkpt><trkpt lat="45.7864362" lon="11.3852772"><ele>280.42857142857144</ele><time>2026-04-25T11:13:09.674Z</time></trkpt><trkpt lat="45.7863893" lon="11.3853486"><ele>279.2857142857143</ele><time>2026-04-25T11:13:12.686Z</time></trkpt><trkpt lat="45.7863411" lon="11.3854186"><ele>278.1428571428571</ele><time>2026-04-25T11:13:15.663Z</time></trkpt><trkpt lat="45.7862884" lon="11.3854734"><ele>277.0</ele><time>2026-04-25T11:13:18.69Z</time></trkpt><trkpt lat="45.786235" lon="11.3855435"><ele>276.3333333333333</ele><time>2026-04-25T11:13:21.69Z</time></trkpt><trkpt lat="45.7861855" lon="11.3856257"><ele>275.66666666666663</ele><time>2026-04-25T11:13:24.688Z</time></trkpt><trkpt lat="45.7861362" lon="11.3857053"><ele>275.0</ele><time>2026-04-25T11:13:27.683Z</time></trkpt><trkpt lat="45.7860855" lon="11.3857865"><ele>274.3333333333333</ele><time>2026-04-25T11:13:30.684Z</time></trkpt><trkpt lat="45.7860324" lon="11.3858666"><ele>273.6666666666667</ele><time>2026-04-25T11:13:33.692Z</time></trkpt><trkpt lat="45.7859837" lon="11.3859456"><ele>273.0</ele><time>2026-04-25T11:13:36.686Z</time></trkpt><trkpt lat="45.7859373" lon="11.3860284"><ele>274.0</ele><time>2026-04-25T11:13:39.647Z</time></trkpt><trkpt lat="45.7858906" lon="11.3861132"><ele>275.0</ele><time>2026-04-25T11:13:42.698Z</time></trkpt><trkpt lat="45.78586" lon="11.3862056"><ele>276.0</ele><time>2026-04-25T11:13:45.691Z</time></trkpt><trkpt lat="45.7858069" lon="11.3862833"><ele>277.0</ele><time>2026-04-25T11:13:48.6Z</time></trkpt><trkpt lat="45.7857517" lon="11.3863653"><ele>278.0</ele><time>2026-04-25T11:13:51.685Z</time></trkpt><trkpt lat="45.7857018" lon="11.3864532"><ele>279.0</ele><time>2026-04-25T11:13:54.66Z</time></trkpt><trkpt lat="45.7856542" lon="11.3865529"><ele>279.0</ele><time>2026-04-25T11:13:57.672Z</time></trkpt><trkpt lat="45.7856075" lon="11.3866522"><ele>279.0</ele><time>2026-04-25T11:14:00.685Z</time></trkpt><trkpt lat="45.7855614" lon="11.3867436"><ele>279.0</ele><time>2026-04-25T11:14:03.605Z</time></trkpt><trkpt lat="45.7855119" lon="11.38684"><ele>279.0</ele><time>2026-04-25T11:14:06.696Z</time></trkpt><trkpt lat="45.7854629" lon="11.3869369"><ele>279.0</ele><time>2026-04-25T11:14:09.687Z</time></trkpt><trkpt lat="45.7854141" lon="11.3870312"><ele>279.0</ele><time>2026-04-25T11:14:12.683Z</time></trkpt><trkpt lat="45.7853657" lon="11.3871175"><ele>278.4285714285714</ele><time>2026-04-25T11:14:15.61Z</time></trkpt><trkpt lat="45.7853145" lon="11.3871925"><ele>277.85714285714283</ele><time>2026-04-25T11:14:18.701Z</time></trkpt><trkpt lat="45.7852663" lon="11.3872562"><ele>277.2857142857143</ele><time>2026-04-25T11:14:21.622Z</time></trkpt><trkpt lat="45.7852019" lon="11.3873348"><ele>276.71428571428567</ele><time>2026-04-25T11:14:25.689Z</time></trkpt><trkpt lat="45.7851608" lon="11.3874083"><ele>276.1428571428571</ele><time>2026-04-25T11:14:28.683Z</time></trkpt><trkpt lat="45.7851179" lon="11.3874958"><ele>275.57142857142856</ele><time>2026-04-25T11:14:32.589Z</time></trkpt><trkpt lat="45.7850669" lon="11.3875858"><ele>275.0</ele><time>2026-04-25T11:14:36.691Z</time></trkpt><trkpt lat="45.7850251" lon="11.3876707"><ele>276.0</ele><time>2026-04-25T11:14:40.687Z</time></trkpt><trkpt lat="45.7849814" lon="11.387766"><ele>277.0</ele><time>2026-04-25T11:14:44.67Z</time></trkpt><trkpt lat="45.7849477" lon="11.38785"><ele>278.0</ele><time>2026-04-25T11:14:47.689Z</time></trkpt><trkpt lat="45.7849095" lon="11.3879385"><ele>279.0</ele><time>2026-04-25T11:14:50.685Z</time></trkpt><trkpt lat="45.7848691" lon="11.3880189"><ele>280.0</ele><time>2026-04-25T11:14:53.68Z</time></trkpt><trkpt lat="45.7848302" lon="11.3880919"><ele>281.0</ele><time>2026-04-25T11:14:56.648Z</time></trkpt><trkpt lat="45.784772" lon="11.3881763"><ele>282.0</ele><time>2026-04-25T11:15:00.686Z</time></trkpt><trkpt lat="45.7847154" lon="11.3882782"><ele>282.0</ele><time>2026-04-25T11:15:04.69Z</time></trkpt><trkpt lat="45.7846753" lon="11.3883736"><ele>282.0</ele><time>2026-04-25T11:15:07.606Z</time></trkpt><trkpt lat="45.7846501" lon="11.3884614"><ele>282.0</ele><time>2026-04-25T11:15:09.69Z</time></trkpt><trkpt lat="45.7846108" lon="11.388584"><ele>282.0</ele><time>2026-04-25T11:15:12.622Z</time></trkpt><trkpt lat="45.7845788" lon="11.3886705"><ele>282.0</ele><time>2026-04-25T11:15:14.688Z</time></trkpt><trkpt lat="45.784553" lon="11.3887546"><ele>282.0</ele><time>2026-04-25T11:15:16.685Z</time></trkpt><trkpt lat="45.7845191" lon="11.3888727"><ele>283.0</ele><time>2026-04-25T11:15:19.688Z</time></trkpt><trkpt lat="45.784483" lon="11.3889817"><ele>284.0</ele><time>2026-04-25T11:15:22.626Z</time></trkpt><trkpt lat="45.7844405" lon="11.389092"><ele>285.0</ele><time>2026-04-25T11:15:25.683Z</time></trkpt><trkpt lat="45.7844028" lon="11.3891888"><ele>286.0</ele><time>2026-04-25T11:15:28.687Z</time></trkpt><trkpt lat="45.7843659" lon="11.3893013"><ele>287.0</ele><time>2026-04-25T11:15:31.687Z</time></trkpt><trkpt lat="45.7843317" lon="11.3894093"><ele>288.0</ele><time>2026-04-25T11:15:34.685Z</time></trkpt><trkpt lat="45.7843012" lon="11.3895137"><ele>288.0</ele><time>2026-04-25T11:15:37.642Z</time></trkpt><trkpt lat="45.7842738" lon="11.3896273"><ele>288.0</ele><time>2026-04-25T11:15:40.68Z</time></trkpt><trkpt lat="45.7842538" lon="11.3897425"><ele>288.0</ele><time>2026-04-25T11:15:43.692Z</time></trkpt><trkpt lat="45.7842245" lon="11.389849"><ele>288.0</ele><time>2026-04-25T11:15:46.673Z</time></trkpt><trkpt lat="45.784187" lon="11.3899481"><ele>288.0</ele><time>2026-04-25T11:15:49.691Z</time></trkpt><trkpt lat="45.7841579" lon="11.3900495"><ele>288.0</ele><time>2026-04-25T11:15:52.606Z</time></trkpt><trkpt lat="45.7841249" lon="11.3901469"><ele>287.28571428571433</ele><time>2026-04-25T11:15:55.691Z</time></trkpt><trkpt lat="45.7841012" lon="11.3902428"><ele>286.57142857142856</ele><time>2026-04-25T11:15:58.641Z</time></trkpt><trkpt lat="45.7840681" lon="11.3903358"><ele>285.8571428571429</ele><time>2026-04-25T11:16:01.677Z</time></trkpt><trkpt lat="45.7840393" lon="11.3904371"><ele>285.14285714285717</ele><time>2026-04-25T11:16:04.685Z</time></trkpt><trkpt lat="45.7840113" lon="11.3905358"><ele>284.42857142857144</ele><time>2026-04-25T11:16:07.619Z</time></trkpt><trkpt lat="45.7839879" lon="11.3906402"><ele>283.7142857142857</ele><time>2026-04-25T11:16:10.685Z</time></trkpt><trkpt lat="45.7839646" lon="11.3907348"><ele>283.0</ele><time>2026-04-25T11:16:13.681Z</time></trkpt><trkpt lat="45.7839422" lon="11.3908268"><ele>282.0</ele><time>2026-04-25T11:16:16.595Z</time></trkpt><trkpt lat="45.7839055" lon="11.3909201"><ele>281.0</ele><time>2026-04-25T11:16:19.69Z</time></trkpt><trkpt lat="45.7838721" lon="11.3910075"><ele>280.0</ele><time>2026-04-25T11:16:22.684Z</time></trkpt><trkpt lat="45.7838317" lon="11.3910912"><ele>279.0</ele><time>2026-04-25T11:16:25.6Z</time></trkpt><trkpt lat="45.7837902" lon="11.3911651"><ele>278.0</ele><time>2026-04-25T11:16:28.692Z</time></trkpt><trkpt lat="45.7837352" lon="11.3912461"><ele>277.0</ele><time>2026-04-25T11:16:32.693Z</time></trkpt><trkpt lat="45.7836854" lon="11.3913159"><ele>276.0</ele><time>2026-04-25T11:16:36.692Z</time></trkpt><trkpt lat="45.7836397" lon="11.3913958"><ele>274.14285714285717</ele><time>2026-04-25T11:16:40.687Z</time></trkpt><trkpt lat="45.7835963" lon="11.3914982"><ele>272.28571428571433</ele><time>2026-04-25T11:16:44.686Z</time></trkpt><trkpt lat="45.7835575" lon="11.3915834"><ele>270.42857142857144</ele><time>2026-04-25T11:16:47.663Z</time></trkpt><trkpt lat="45.7835172" lon="11.3916722"><ele>268.57142857142856</ele><time>2026-04-25T11:16:50.689Z</time></trkpt><trkpt lat="45.7834778" lon="11.391754"><ele>266.71428571428567</ele><time>2026-04-25T11:16:53.697Z</time></trkpt><trkpt lat="45.7834343" lon="11.3918296"><ele>264.85714285714283</ele><time>2026-04-25T11:16:56.609Z</time></trkpt><trkpt lat="45.7833924" lon="11.3919132"><ele>263.0</ele><time>2026-04-25T11:16:59.692Z</time></trkpt><trkpt lat="45.7833603" lon="11.3920088"><ele>265.85714285714283</ele><time>2026-04-25T11:17:02.685Z</time></trkpt><trkpt lat="45.7833243" lon="11.3920963"><ele>268.71428571428567</ele><time>2026-04-25T11:17:05.608Z</time></trkpt><trkpt lat="45.7832866" lon="11.3921898"><ele>271.57142857142856</ele><time>2026-04-25T11:17:08.69Z</time></trkpt><trkpt lat="45.7832572" lon="11.3922935"><ele>274.42857142857144</ele><time>2026-04-25T11:17:12.685Z</time></trkpt><trkpt lat="45.7832344" lon="11.3923819"><ele>277.28571428571433</ele><time>2026-04-25T11:17:15.622Z</time></trkpt><trkpt lat="45.7832113" lon="11.3924793"><ele>280.14285714285717</ele><time>2026-04-25T11:17:19.684Z</time></trkpt><trkpt lat="45.7831813" lon="11.3925856"><ele>283.0</ele><time>2026-04-25T11:17:23.7Z</time></trkpt><trkpt lat="45.7831455" lon="11.3926961"><ele>283.0</ele><time>2026-04-25T11:17:27.696Z</time></trkpt><trkpt lat="45.7831107" lon="11.3928018"><ele>283.0</ele><time>2026-04-25T11:17:31.692Z</time></trkpt><trkpt lat="45.7830956" lon="11.3928988"><ele>283.0</ele><time>2026-04-25T11:17:34.666Z</time></trkpt><trkpt lat="45.7830842" lon="11.3930033"><ele>283.0</ele><time>2026-04-25T11:17:37.677Z</time></trkpt><trkpt lat="45.7830728" lon="11.3931226"><ele>283.0</ele><time>2026-04-25T11:17:40.674Z</time></trkpt><trkpt lat="45.7830594" lon="11.3932685"><ele>283.0</ele><time>2026-04-25T11:17:43.692Z</time></trkpt><trkpt lat="45.7830476" lon="11.3934037"><ele>281.8333333333333</ele><time>2026-04-25T11:17:45.678Z</time></trkpt><trkpt lat="45.7830392" lon="11.3935027"><ele>280.66666666666663</ele><time>2026-04-25T11:17:47.261Z</time></trkpt><trkpt lat="45.7830273" lon="11.3935947"><ele>279.5</ele><time>2026-04-25T11:17:48.669Z</time></trkpt><trkpt lat="45.7829988" lon="11.3937271"><ele>278.3333333333333</ele><time>2026-04-25T11:17:50.687Z</time></trkpt><trkpt lat="45.7829689" lon="11.3938492"><ele>277.1666666666667</ele><time>2026-04-25T11:17:52.666Z</time></trkpt><trkpt lat="45.7829469" lon="11.3939555"><ele>276.0</ele><time>2026-04-25T11:17:54.673Z</time></trkpt><trkpt lat="45.7829277" lon="11.3940448"><ele>275.0</ele><time>2026-04-25T11:17:56.67Z</time></trkpt><trkpt lat="45.7829155" lon="11.3941352"><ele>274.0</ele><time>2026-04-25T11:17:58.672Z</time></trkpt><trkpt lat="45.7829073" lon="11.3942428"><ele>273.0</ele><time>2026-04-25T11:18:01.696Z</time></trkpt><trkpt lat="45.7828937" lon="11.3943378"><ele>272.0</ele><time>2026-04-25T11:18:04.705Z</time></trkpt><trkpt lat="45.7828647" lon="11.3944399"><ele>271.0</ele><time>2026-04-25T11:18:08.708Z</time></trkpt><trkpt lat="45.7828234" lon="11.3945287"><ele>270.0</ele><time>2026-04-25T11:18:12.646Z</time></trkpt><trkpt lat="45.7827876" lon="11.3946254"><ele>269.0</ele><time>2026-04-25T11:18:16.642Z</time></trkpt><trkpt lat="45.7827745" lon="11.3947337"><ele>267.42857142857144</ele><time>2026-04-25T11:18:20.626Z</time></trkpt><trkpt lat="45.7827513" lon="11.3948263"><ele>265.8571428571429</ele><time>2026-04-25T11:18:23.674Z</time></trkpt><trkpt lat="45.7827215" lon="11.3949093"><ele>264.2857142857143</ele><time>2026-04-25T11:18:26.678Z</time></trkpt><trkpt lat="45.7826875" lon="11.3949997"><ele>262.7142857142857</ele><time>2026-04-25T11:18:29.679Z</time></trkpt><trkpt lat="45.782654" lon="11.3950851"><ele>261.1428571428571</ele><time>2026-04-25T11:18:32.602Z</time></trkpt><trkpt lat="45.7826156" lon="11.3951627"><ele>259.57142857142856</ele><time>2026-04-25T11:18:35.68Z</time></trkpt><trkpt lat="45.7825824" lon="11.3952476"><ele>258.0</ele><time>2026-04-25T11:18:38.68Z</time></trkpt><trkpt lat="45.7825505" lon="11.3953338"><ele>261.99999999999994</ele><time>2026-04-25T11:18:41.605Z</time></trkpt><trkpt lat="45.7825302" lon="11.3954295"><ele>266.0</ele><time>2026-04-25T11:18:44.68Z</time></trkpt><trkpt lat="45.7825051" lon="11.3955195"><ele>270.0</ele><time>2026-04-25T11:18:47.672Z</time></trkpt><trkpt lat="45.7824779" lon="11.3956116"><ele>274.0</ele><time>2026-04-25T11:18:50.627Z</time></trkpt><trkpt lat="45.7824472" lon="11.3957017"><ele>278.0</ele><time>2026-04-25T11:18:53.67Z</time></trkpt><trkpt lat="45.7824195" lon="11.3957844"><ele>281.99999999999994</ele><time>2026-04-25T11:18:56.687Z</time></trkpt><trkpt lat="45.7823877" lon="11.3958629"><ele>286.0</ele><time>2026-04-25T11:18:59.645Z</time></trkpt><trkpt lat="45.7823479" lon="11.3959491"><ele>286.0</ele><time>2026-04-25T11:19:03.606Z</time></trkpt><trkpt lat="45.7822885" lon="11.3960257"><ele>286.0</ele><time>2026-04-25T11:19:07.675Z</time></trkpt><trkpt lat="45.7822384" lon="11.3961159"><ele>286.0</ele><time>2026-04-25T11:19:11.586Z</time></trkpt><trkpt lat="45.7822007" lon="11.3962205"><ele>286.0</ele><time>2026-04-25T11:19:15.681Z</time></trkpt><trkpt lat="45.7821747" lon="11.3963314"><ele>286.0</ele><time>2026-04-25T11:19:19.602Z</time></trkpt><trkpt lat="45.7821476" lon="11.3964306"><ele>286.0</ele><time>2026-04-25T11:19:23.688Z</time></trkpt><trkpt lat="45.7821102" lon="11.3965037"><ele>284.57142857142856</ele><time>2026-04-25T11:19:27.68Z</time></trkpt><trkpt lat="45.7820635" lon="11.3965733"><ele>283.1428571428571</ele><time>2026-04-25T11:19:31.683Z</time></trkpt><trkpt lat="45.7820295" lon="11.39667"><ele>281.7142857142857</ele><time>2026-04-25T11:19:35.682Z</time></trkpt><trkpt lat="45.7819955" lon="11.3967757"><ele>280.2857142857143</ele><time>2026-04-25T11:19:39.681Z</time></trkpt><trkpt lat="45.7819585" lon="11.3968669"><ele>278.8571428571429</ele><time>2026-04-25T11:19:43.681Z</time></trkpt><trkpt lat="45.7819335" lon="11.3969543"><ele>277.42857142857144</ele><time>2026-04-25T11:19:47.679Z</time></trkpt><trkpt lat="45.781884" lon="11.3970465"><ele>276.0</ele><time>2026-04-25T11:19:51.684Z</time></trkpt><trkpt lat="45.7818358" lon="11.397113"><ele>278.7142857142857</ele><time>2026-04-25T11:19:54.678Z</time></trkpt><trkpt lat="45.781785" lon="11.3971836"><ele>281.42857142857144</ele><time>2026-04-25T11:19:57.642Z</time></trkpt><trkpt lat="45.7817308" lon="11.3972482"><ele>284.14285714285717</ele><time>2026-04-25T11:20:00.682Z</time></trkpt><trkpt lat="45.7816687" lon="11.3972973"><ele>286.8571428571429</ele><time>2026-04-25T11:20:03.666Z</time></trkpt><trkpt lat="45.7816183" lon="11.3973681"><ele>289.57142857142856</ele><time>2026-04-25T11:20:06.684Z</time></trkpt><trkpt lat="45.7815722" lon="11.3974433"><ele>292.28571428571433</ele><time>2026-04-25T11:20:09.625Z</time></trkpt><trkpt lat="45.7815293" lon="11.3975258"><ele>295.0</ele><time>2026-04-25T11:20:12.68Z</time></trkpt><trkpt lat="45.7814953" lon="11.3976151"><ele>295.00000000000006</ele><time>2026-04-25T11:20:15.686Z</time></trkpt><trkpt lat="45.7814636" lon="11.3977047"><ele>295.0</ele><time>2026-04-25T11:20:18.663Z</time></trkpt><trkpt lat="45.7814335" lon="11.3977911"><ele>295.0</ele><time>2026-04-25T11:20:21.586Z</time></trkpt><trkpt lat="45.7814116" lon="11.3978927"><ele>295.0</ele><time>2026-04-25T11:20:24.68Z</time></trkpt><trkpt lat="45.7813939" lon="11.3979905"><ele>295.0</ele><time>2026-04-25T11:20:27.681Z</time></trkpt><trkpt lat="45.7813671" lon="11.3981035"><ele>295.00000000000006</ele><time>2026-04-25T11:20:31.597Z</time></trkpt><trkpt lat="45.7813426" lon="11.3982052"><ele>295.0</ele><time>2026-04-25T11:20:35.669Z</time></trkpt><trkpt lat="45.7813034" lon="11.3983019"><ele>293.42857142857144</ele><time>2026-04-25T11:20:39.674Z</time></trkpt><trkpt lat="45.7812602" lon="11.3984008"><ele>291.8571428571429</ele><time>2026-04-25T11:20:43.679Z</time></trkpt><trkpt lat="45.7812389" lon="11.398486"><ele>290.2857142857143</ele><time>2026-04-25T11:20:46.675Z</time></trkpt><trkpt lat="45.7812174" lon="11.3985717"><ele>288.7142857142857</ele><time>2026-04-25T11:20:49.616Z</time></trkpt><trkpt lat="45.7811989" lon="11.3986651"><ele>287.1428571428571</ele><time>2026-04-25T11:20:52.675Z</time></trkpt><trkpt lat="45.7811773" lon="11.3987638"><ele>285.57142857142856</ele><time>2026-04-25T11:20:55.682Z</time></trkpt><trkpt lat="45.781154" lon="11.3988641"><ele>284.0</ele><time>2026-04-25T11:20:58.66Z</time></trkpt><trkpt lat="45.7811293" lon="11.3989626"><ele>282.1666666666667</ele><time>2026-04-25T11:21:01.612Z</time></trkpt><trkpt lat="45.7811077" lon="11.399058"><ele>280.33333333333337</ele><time>2026-04-25T11:21:04.673Z</time></trkpt><trkpt lat="45.7810887" lon="11.3991534"><ele>278.5</ele><time>2026-04-25T11:21:07.688Z</time></trkpt><trkpt lat="45.781056" lon="11.3992614"><ele>276.6666666666667</ele><time>2026-04-25T11:21:11.687Z</time></trkpt><trkpt lat="45.7810109" lon="11.3993531"><ele>274.8333333333333</ele><time>2026-04-25T11:21:15.69Z</time></trkpt><trkpt lat="45.7809555" lon="11.39945"><ele>273.0</ele><time>2026-04-25T11:21:19.686Z</time></trkpt><trkpt lat="45.7809055" lon="11.39952"><ele>275.85714285714283</ele><time>2026-04-25T11:21:22.603Z</time></trkpt><trkpt lat="45.7808571" lon="11.3995946"><ele>278.7142857142857</ele><time>2026-04-25T11:21:25.685Z</time></trkpt><trkpt lat="45.7808109" lon="11.3996681"><ele>281.57142857142856</ele><time>2026-04-25T11:21:28.682Z</time></trkpt><trkpt lat="45.7807623" lon="11.3997429"><ele>284.42857142857144</ele><time>2026-04-25T11:21:31.669Z</time></trkpt><trkpt lat="45.7807148" lon="11.3998336"><ele>287.2857142857143</ele><time>2026-04-25T11:21:34.676Z</time></trkpt><trkpt lat="45.780666" lon="11.3999215"><ele>290.1428571428571</ele><time>2026-04-25T11:21:37.68Z</time></trkpt><trkpt lat="45.7806133" lon="11.399999"><ele>293.0</ele><time>2026-04-25T11:21:40.682Z</time></trkpt><trkpt lat="45.7805592" lon="11.4000748"><ele>293.0</ele><time>2026-04-25T11:21:43.683Z</time></trkpt><trkpt lat="45.7805025" lon="11.4001478"><ele>293.0</ele><time>2026-04-25T11:21:46.601Z</time></trkpt><trkpt lat="45.7804584" lon="11.4002353"><ele>293.0</ele><time>2026-04-25T11:21:49.502Z</time></trkpt><trkpt lat="45.78041" lon="11.4003231"><ele>293.0</ele><time>2026-04-25T11:21:52.677Z</time></trkpt><trkpt lat="45.7803673" lon="11.4004022"><ele>293.0</ele><time>2026-04-25T11:21:55.682Z</time></trkpt><trkpt lat="45.7803203" lon="11.4004863"><ele>293.0</ele><time>2026-04-25T11:21:58.648Z</time></trkpt><trkpt lat="45.7802676" lon="11.4005692"><ele>294.57142857142856</ele><time>2026-04-25T11:22:01.613Z</time></trkpt><trkpt lat="45.7802143" lon="11.4006465"><ele>296.1428571428571</ele><time>2026-04-25T11:22:04.695Z</time></trkpt><trkpt lat="45.7801576" lon="11.4007208"><ele>297.71428571428567</ele><time>2026-04-25T11:22:07.689Z</time></trkpt><trkpt lat="45.7801063" lon="11.4007934"><ele>299.2857142857143</ele><time>2026-04-25T11:22:10.689Z</time></trkpt><trkpt lat="45.7800582" lon="11.4008695"><ele>300.8571428571429</ele><time>2026-04-25T11:22:13.686Z</time></trkpt><trkpt lat="45.7800166" lon="11.4009509"><ele>302.4285714285714</ele><time>2026-04-25T11:22:16.69Z</time></trkpt><trkpt lat="45.7799744" lon="11.4010341"><ele>304.0</ele><time>2026-04-25T11:22:19.677Z</time></trkpt><trkpt lat="45.7799294" lon="11.4011145"><ele>304.0</ele><time>2026-04-25T11:22:22.647Z</time></trkpt><trkpt lat="45.7798808" lon="11.401188"><ele>304.0</ele><time>2026-04-25T11:22:25.608Z</time></trkpt><trkpt lat="45.7798387" lon="11.4012736"><ele>304.0</ele><time>2026-04-25T11:22:28.679Z</time></trkpt><trkpt lat="45.7798023" lon="11.4013507"><ele>304.0</ele><time>2026-04-25T11:22:31.691Z</time></trkpt><trkpt lat="45.7797613" lon="11.4014192"><ele>304.0</ele><time>2026-04-25T11:22:34.647Z</time></trkpt><trkpt lat="45.7797178" lon="11.4014912"><ele>304.0</ele><time>2026-04-25T11:22:37.677Z</time></trkpt><trkpt lat="45.7796693" lon="11.4015915"><ele>304.0</ele><time>2026-04-25T11:22:41.682Z</time></trkpt><trkpt lat="45.7796152" lon="11.4016668"><ele>304.2857142857143</ele><time>2026-04-25T11:22:44.672Z</time></trkpt><trkpt lat="45.7795581" lon="11.4017372"><ele>304.5714285714286</ele><time>2026-04-25T11:22:47.627Z</time></trkpt><trkpt lat="45.7795049" lon="11.4018049"><ele>304.8571428571429</ele><time>2026-04-25T11:22:50.592Z</time></trkpt><trkpt lat="45.7794572" lon="11.4018701"><ele>305.1428571428571</ele><time>2026-04-25T11:22:53.677Z</time></trkpt><trkpt lat="45.779407" lon="11.4019262"><ele>305.42857142857144</ele><time>2026-04-25T11:22:56.668Z</time></trkpt><trkpt lat="45.7793382" lon="11.4019883"><ele>305.7142857142857</ele><time>2026-04-25T11:23:00.688Z</time></trkpt><trkpt lat="45.7792874" lon="11.4020469"><ele>306.0</ele><time>2026-04-25T11:23:03.607Z</time></trkpt><trkpt lat="45.7792403" lon="11.4021441"><ele>304.5</ele><time>2026-04-25T11:23:06.7Z</time></trkpt><trkpt lat="45.7792027" lon="11.402248"><ele>303.0</ele><time>2026-04-25T11:23:09.681Z</time></trkpt><trkpt lat="45.7791594" lon="11.4023357"><ele>301.5</ele><time>2026-04-25T11:23:12.626Z</time></trkpt><trkpt lat="45.7791046" lon="11.4024051"><ele>300.0</ele><time>2026-04-25T11:23:15.225Z</time></trkpt><trkpt lat="45.7790552" lon="11.402477"><ele>298.5</ele><time>2026-04-25T11:23:17.691Z</time></trkpt><trkpt lat="45.7789947" lon="11.4025573"><ele>297.0</ele><time>2026-04-25T11:23:20.644Z</time></trkpt><trkpt lat="45.7789364" lon="11.4026427"><ele>297.0</ele><time>2026-04-25T11:23:23.678Z</time></trkpt><trkpt lat="45.7788821" lon="11.4027267"><ele>297.0</ele><time>2026-04-25T11:23:26.676Z</time></trkpt><trkpt lat="45.7788242" lon="11.402807"><ele>297.0</ele><time>2026-04-25T11:23:29.683Z</time></trkpt><trkpt lat="45.7787696" lon="11.4028877"><ele>297.0</ele><time>2026-04-25T11:23:32.645Z</time></trkpt><trkpt lat="45.7787139" lon="11.4029707"><ele>297.0</ele><time>2026-04-25T11:23:35.678Z</time></trkpt><trkpt lat="45.7786539" lon="11.4030518"><ele>297.0</ele><time>2026-04-25T11:23:38.683Z</time></trkpt><trkpt lat="45.7785931" lon="11.4031335"><ele>296.8571428571429</ele><time>2026-04-25T11:23:41.683Z</time></trkpt><trkpt lat="45.7785374" lon="11.403215"><ele>296.7142857142857</ele><time>2026-04-25T11:23:44.599Z</time></trkpt><trkpt lat="45.7784901" lon="11.4032933"><ele>296.57142857142856</ele><time>2026-04-25T11:23:47.675Z</time></trkpt><trkpt lat="45.7784437" lon="11.4033658"><ele>296.42857142857144</ele><time>2026-04-25T11:23:50.688Z</time></trkpt><trkpt lat="45.7783955" lon="11.4034347"><ele>296.2857142857143</ele><time>2026-04-25T11:23:53.69Z</time></trkpt><trkpt lat="45.778352" lon="11.4035105"><ele>296.14285714285717</ele><time>2026-04-25T11:23:56.624Z</time></trkpt><trkpt lat="45.7783096" lon="11.403587"><ele>296.0</ele><time>2026-04-25T11:23:59.675Z</time></trkpt><trkpt lat="45.7782755" lon="11.4036639"><ele>296.0</ele><time>2026-04-25T11:24:02.686Z</time></trkpt><trkpt lat="45.7782357" lon="11.4037614"><ele>296.0</ele><time>2026-04-25T11:24:06.676Z</time></trkpt><trkpt lat="45.7782038" lon="11.4038394"><ele>296.0</ele><time>2026-04-25T11:24:09.685Z</time></trkpt><trkpt lat="45.7781694" lon="11.4039467"><ele>296.0</ele><time>2026-04-25T11:24:13.661Z</time></trkpt><trkpt lat="45.7781324" lon="11.404056"><ele>296.0</ele><time>2026-04-25T11:24:17.687Z</time></trkpt><trkpt lat="45.7780923" lon="11.4041528"><ele>296.0</ele><time>2026-04-25T11:24:21.679Z</time></trkpt><trkpt lat="45.7780537" lon="11.4042458"><ele>295.14285714285717</ele><time>2026-04-25T11:24:25.678Z</time></trkpt><trkpt lat="45.7780224" lon="11.4043344"><ele>294.2857142857143</ele><time>2026-04-25T11:24:29.684Z</time></trkpt><trkpt lat="45.7779903" lon="11.404413"><ele>293.42857142857144</ele><time>2026-04-25T11:24:33.685Z</time></trkpt><trkpt lat="45.7779591" lon="11.4044975"><ele>292.57142857142856</ele><time>2026-04-25T11:24:37.679Z</time></trkpt><trkpt lat="45.7779193" lon="11.4045866"><ele>291.7142857142857</ele><time>2026-04-25T11:24:41.656Z</time></trkpt><trkpt lat="45.7778777" lon="11.4046687"><ele>290.8571428571429</ele><time>2026-04-25T11:24:45.676Z</time></trkpt><trkpt lat="45.7778366" lon="11.4047455"><ele>290.0</ele><time>2026-04-25T11:24:49.678Z</time></trkpt><trkpt lat="45.777794" lon="11.4048269"><ele>288.5</ele><time>2026-04-25T11:24:53.678Z</time></trkpt><trkpt lat="45.7777449" lon="11.404898"><ele>287.0</ele><time>2026-04-25T11:24:57.675Z</time></trkpt><trkpt lat="45.7776919" lon="11.4049649"><ele>285.5</ele><time>2026-04-25T11:25:01.586Z</time></trkpt><trkpt lat="45.7776245" lon="11.4050347"><ele>284.0</ele><time>2026-04-25T11:25:04.869Z</time></trkpt><trkpt lat="45.7775703" lon="11.4050977"><ele>282.5</ele><time>2026-04-25T11:25:08.202Z</time></trkpt><trkpt lat="45.7775106" lon="11.4051702"><ele>281.0</ele><time>2026-04-25T11:25:11.505Z</time></trkpt><trkpt lat="45.7774454" lon="11.4052355"><ele>288.75</ele><time>2026-04-25T11:25:14.651Z</time></trkpt><trkpt lat="45.7773793" lon="11.4052939"><ele>296.5</ele><time>2026-04-25T11:25:17.065Z</time></trkpt><trkpt lat="45.7773231" lon="11.4053436"><ele>304.25</ele><time>2026-04-25T11:25:21.362Z</time></trkpt><trkpt lat="45.7774417" lon="11.4051824"><ele>312.0</ele><time>2026-04-25T11:25:32.732Z</time></trkpt><trkpt lat="45.7771768" lon="11.4060345"><ele>312.0</ele><time>2026-04-25T11:25:38.677Z</time></trkpt><trkpt lat="45.7770832" lon="11.4062551"><ele>312.0</ele><time>2026-04-25T11:25:39.67Z</time></trkpt><trkpt lat="45.7770351" lon="11.406328"><ele>312.0</ele><time>2026-04-25T11:25:40.67Z</time></trkpt><trkpt lat="45.7769818" lon="11.4063928"><ele>312.0</ele><time>2026-04-25T11:25:42.669Z</time></trkpt><trkpt lat="45.7769309" lon="11.4064608"><ele>312.0</ele><time>2026-04-25T11:25:45.675Z</time></trkpt><trkpt lat="45.7768567" lon="11.4065389"><ele>313.5</ele><time>2026-04-25T11:25:49.706Z</time></trkpt><trkpt lat="45.7767985" lon="11.4066152"><ele>315.0</ele><time>2026-04-25T11:25:52.671Z</time></trkpt><trkpt lat="45.776748" lon="11.4066898"><ele>316.5</ele><time>2026-04-25T11:25:55.612Z</time></trkpt><trkpt lat="45.7767024" lon="11.4067538"><ele>318.0</ele><time>2026-04-25T11:25:58.596Z</time></trkpt><trkpt lat="45.7766329" lon="11.4068054"><ele>319.5</ele><time>2026-04-25T11:26:02.648Z</time></trkpt><trkpt lat="45.7765621" lon="11.4068533"><ele>321.0</ele><time>2026-04-25T11:26:06.639Z</time></trkpt><trkpt lat="45.7764807" lon="11.406881"><ele>320.99999999999994</ele><time>2026-04-25T11:26:10.68Z</time></trkpt><trkpt lat="45.7764202" lon="11.4069376"><ele>321.0</ele><time>2026-04-25T11:26:14.669Z</time></trkpt><trkpt lat="45.7763756" lon="11.4070062"><ele>321.0</ele><time>2026-04-25T11:26:17.623Z</time></trkpt><trkpt lat="45.7763331" lon="11.407082"><ele>321.0</ele><time>2026-04-25T11:26:20.614Z</time></trkpt><trkpt lat="45.7762872" lon="11.4071477"><ele>321.0</ele><time>2026-04-25T11:26:23.679Z</time></trkpt><trkpt lat="45.776227" lon="11.4072098"><ele>320.99999999999994</ele><time>2026-04-25T11:26:27.582Z</time></trkpt><trkpt lat="45.7761624" lon="11.407252"><ele>321.0</ele><time>2026-04-25T11:26:31.676Z</time></trkpt><trkpt lat="45.7760878" lon="11.4072928"><ele>321.5</ele><time>2026-04-25T11:26:35.608Z</time></trkpt><trkpt lat="45.7760213" lon="11.4073285"><ele>322.0</ele><time>2026-04-25T11:26:38.823Z</time></trkpt><trkpt lat="45.7759452" lon="11.4073748"><ele>322.5</ele><time>2026-04-25T11:26:42.139Z</time></trkpt><trkpt lat="45.7758716" lon="11.4074205"><ele>323.0</ele><time>2026-04-25T11:26:45.404Z</time></trkpt><trkpt lat="45.7757948" lon="11.407452"><ele>323.5</ele><time>2026-04-25T11:26:48.683Z</time></trkpt><trkpt lat="45.775733" lon="11.4075092"><ele>324.0</ele><time>2026-04-25T11:26:51.606Z</time></trkpt><trkpt lat="45.7756728" lon="11.4075578"><ele>324.0</ele><time>2026-04-25T11:26:54.667Z</time></trkpt><trkpt lat="45.7756272" lon="11.4076529"><ele>324.0</ele><time>2026-04-25T11:26:58.676Z</time></trkpt><trkpt lat="45.7755716" lon="11.407704"><ele>324.0</ele><time>2026-04-25T11:27:02.684Z</time></trkpt><trkpt lat="45.7754979" lon="11.4077314"><ele>324.0</ele><time>2026-04-25T11:27:06.674Z</time></trkpt><trkpt lat="45.7754303" lon="11.4077936"><ele>324.0</ele><time>2026-04-25T11:27:10.676Z</time></trkpt><trkpt lat="45.7753861" lon="11.407859"><ele>324.0</ele><time>2026-04-25T11:27:13.527Z</time></trkpt><trkpt lat="45.7753393" lon="11.4079447"><ele>324.0</ele><time>2026-04-25T11:27:16.672Z</time></trkpt><trkpt lat="45.7752884" lon="11.4080003"><ele>323.6666666666667</ele><time>2026-04-25T11:27:19.676Z</time></trkpt><trkpt lat="45.7752358" lon="11.4080929"><ele>323.3333333333333</ele><time>2026-04-25T11:27:23.681Z</time></trkpt><trkpt lat="45.7751987" lon="11.4082029"><ele>323.0</ele><time>2026-04-25T11:27:27.68Z</time></trkpt><trkpt lat="45.775169" lon="11.4082988"><ele>322.66666666666663</ele><time>2026-04-25T11:27:30.677Z</time></trkpt><trkpt lat="45.7751331" lon="11.4083832"><ele>322.3333333333333</ele><time>2026-04-25T11:27:33.646Z</time></trkpt><trkpt lat="45.7751979" lon="11.4083239"><ele>322.0</ele><time>2026-04-25T11:27:44.607Z</time></trkpt><trkpt lat="45.7752474" lon="11.4082532"><ele>322.2857142857143</ele><time>2026-04-25T11:27:48.647Z</time></trkpt><trkpt lat="45.7753153" lon="11.4082232"><ele>322.57142857142856</ele><time>2026-04-25T11:27:52.679Z</time></trkpt><trkpt lat="45.7753723" lon="11.408172"><ele>322.8571428571429</ele><time>2026-04-25T11:27:56.683Z</time></trkpt><trkpt lat="45.7754137" lon="11.4081018"><ele>323.1428571428571</ele><time>2026-04-25T11:27:59.688Z</time></trkpt><trkpt lat="45.7754502" lon="11.4080258"><ele>323.42857142857144</ele><time>2026-04-25T11:28:02.645Z</time></trkpt><trkpt lat="45.7754848" lon="11.4079188"><ele>323.7142857142857</ele><time>2026-04-25T11:28:06.647Z</time></trkpt><trkpt lat="45.7755002" lon="11.407831"><ele>324.0</ele><time>2026-04-25T11:28:10.676Z</time></trkpt><trkpt lat="45.7755411" lon="11.407753"><ele>324.0</ele><time>2026-04-25T11:28:14.685Z</time></trkpt><trkpt lat="45.7756017" lon="11.4076871"><ele>324.0</ele><time>2026-04-25T11:28:18.679Z</time></trkpt><trkpt lat="45.7756665" lon="11.4076529"><ele>324.0</ele><time>2026-04-25T11:28:21.662Z</time></trkpt><trkpt lat="45.7757349" lon="11.407645"><ele>324.0</ele><time>2026-04-25T11:28:24.623Z</time></trkpt><trkpt lat="45.7757907" lon="11.4075777"><ele>324.0</ele><time>2026-04-25T11:28:29.672Z</time></trkpt><trkpt lat="45.7758596" lon="11.4075084"><ele>324.0</ele><time>2026-04-25T11:28:33.047Z</time></trkpt><trkpt lat="45.7759288" lon="11.4074484"><ele>324.0</ele><time>2026-04-25T11:28:36.307Z</time></trkpt><trkpt lat="45.7758458" lon="11.4075089"><ele>324.0</ele><time>2026-04-25T11:28:38.507Z</time></trkpt><trkpt lat="45.7757484" lon="11.407595"><ele>324.0</ele><time>2026-04-25T11:28:39.585Z</time></trkpt><trkpt lat="45.7757164" lon="11.4076735"><ele>324.0</ele><time>2026-04-25T11:28:42.672Z</time></trkpt><trkpt lat="45.7757936" lon="11.4075562"><ele>324.0</ele><time>2026-04-25T11:28:44.679Z</time></trkpt><trkpt lat="45.7758521" lon="11.4074648"><ele>324.0</ele><time>2026-04-25T11:28:45.676Z</time></trkpt><trkpt lat="45.7759098" lon="11.4073774"><ele>324.0</ele><time>2026-04-25T11:28:46.667Z</time></trkpt><trkpt lat="45.7759788" lon="11.4073029"><ele>324.0</ele><time>2026-04-25T11:28:47.676Z</time></trkpt><trkpt lat="45.7761027" lon="11.4072213"><ele>324.0</ele><time>2026-04-25T11:28:49.681Z</time></trkpt><trkpt lat="45.7762015" lon="11.4071281"><ele>324.0</ele><time>2026-04-25T11:28:51.668Z</time></trkpt><trkpt lat="45.7762733" lon="11.4070755"><ele>323.57142857142856</ele><time>2026-04-25T11:28:54.606Z</time></trkpt><trkpt lat="45.7763404" lon="11.4070346"><ele>323.1428571428571</ele><time>2026-04-25T11:28:56.673Z</time></trkpt><trkpt lat="45.7764193" lon="11.4069943"><ele>322.71428571428567</ele><time>2026-04-25T11:28:59.586Z</time></trkpt><trkpt lat="45.7764801" lon="11.406933"><ele>322.2857142857143</ele><time>2026-04-25T11:29:02.681Z</time></trkpt><trkpt lat="45.7765352" lon="11.4068717"><ele>321.85714285714283</ele><time>2026-04-25T11:29:05.685Z</time></trkpt><trkpt lat="45.7765855" lon="11.4068104"><ele>321.4285714285714</ele><time>2026-04-25T11:29:08.674Z</time></trkpt><trkpt lat="45.7766205" lon="11.4067275"><ele>321.0</ele><time>2026-04-25T11:29:11.618Z</time></trkpt><trkpt lat="45.7766488" lon="11.4066324"><ele>321.0</ele><time>2026-04-25T11:29:14.673Z</time></trkpt><trkpt lat="45.7766768" lon="11.4065288"><ele>321.0</ele><time>2026-04-25T11:29:18.667Z</time></trkpt><trkpt lat="45.7767055" lon="11.4064314"><ele>321.0</ele><time>2026-04-25T11:29:22.605Z</time></trkpt><trkpt lat="45.7767499" lon="11.4063627"><ele>321.0</ele><time>2026-04-25T11:29:27.578Z</time></trkpt><trkpt lat="45.7767935" lon="11.4062667"><ele>321.0</ele><time>2026-04-25T11:29:31.663Z</time></trkpt><trkpt lat="45.7768305" lon="11.4061609"><ele>321.0</ele><time>2026-04-25T11:29:35.66Z</time></trkpt><trkpt lat="45.7768154" lon="11.4060507"><ele>318.75</ele><time>2026-04-25T11:29:38.681Z</time></trkpt><trkpt lat="45.7768282" lon="11.4059322"><ele>316.5</ele><time>2026-04-25T11:29:41.942Z</time></trkpt><trkpt lat="45.7768527" lon="11.4058202"><ele>314.25</ele><time>2026-04-25T11:29:45.206Z</time></trkpt><trkpt lat="45.7769236" lon="11.4054477"><ele>312.0</ele><time>2026-04-25T11:29:59.667Z</time></trkpt><trkpt lat="45.7773174" lon="11.405462"><ele>305.8</ele><time>2026-04-25T11:30:02.671Z</time></trkpt><trkpt lat="45.7773997" lon="11.4054455"><ele>299.6</ele><time>2026-04-25T11:30:03.667Z</time></trkpt><trkpt lat="45.7774795" lon="11.4054228"><ele>293.40000000000003</ele><time>2026-04-25T11:30:04.66Z</time></trkpt><trkpt lat="45.7776303" lon="11.4053651"><ele>287.2</ele><time>2026-04-25T11:30:06.672Z</time></trkpt><trkpt lat="45.7776981" lon="11.4053415"><ele>281.0</ele><time>2026-04-25T11:30:07.677Z</time></trkpt><trkpt lat="45.7777844" lon="11.4053031"><ele>281.00000000000006</ele><time>2026-04-25T11:30:09.677Z</time></trkpt><trkpt lat="45.7778445" lon="11.4052516"><ele>281.0</ele><time>2026-04-25T11:30:11.679Z</time></trkpt><trkpt lat="45.7778904" lon="11.4051811"><ele>281.0</ele><time>2026-04-25T11:30:14.677Z</time></trkpt><trkpt lat="45.777875" lon="11.4050825"><ele>281.0</ele><time>2026-04-25T11:30:16.674Z</time></trkpt><trkpt lat="45.777914" lon="11.4050002"><ele>281.0</ele><time>2026-04-25T11:30:20.666Z</time></trkpt><trkpt lat="45.7779409" lon="11.4048905"><ele>281.00000000000006</ele><time>2026-04-25T11:30:24.664Z</time></trkpt><trkpt lat="45.7779799" lon="11.4047902"><ele>281.0</ele><time>2026-04-25T11:30:28.676Z</time></trkpt><trkpt lat="45.7780179" lon="11.4046905"><ele>282.5</ele><time>2026-04-25T11:30:32.674Z</time></trkpt><trkpt lat="45.7780612" lon="11.4046138"><ele>284.0</ele><time>2026-04-25T11:30:35.675Z</time></trkpt><trkpt lat="45.778106" lon="11.4045325"><ele>285.5</ele><time>2026-04-25T11:30:38.674Z</time></trkpt><trkpt lat="45.7781418" lon="11.4044428"><ele>287.0</ele><time>2026-04-25T11:30:41.684Z</time></trkpt><trkpt lat="45.7781802" lon="11.4043514"><ele>288.5</ele><time>2026-04-25T11:30:44.62Z</time></trkpt><trkpt lat="45.7782176" lon="11.404248"><ele>290.0</ele><time>2026-04-25T11:30:47.677Z</time></trkpt><trkpt lat="45.7782679" lon="11.4041506"><ele>290.0</ele><time>2026-04-25T11:30:50.673Z</time></trkpt><trkpt lat="45.7783302" lon="11.4040643"><ele>290.0</ele><time>2026-04-25T11:30:53.674Z</time></trkpt><trkpt lat="45.7783931" lon="11.4039791"><ele>290.0</ele><time>2026-04-25T11:30:56.673Z</time></trkpt><trkpt lat="45.7784502" lon="11.4038928"><ele>290.0</ele><time>2026-04-25T11:30:59.668Z</time></trkpt><trkpt lat="45.7784963" lon="11.4038105"><ele>290.0</ele><time>2026-04-25T11:31:02.658Z</time></trkpt><trkpt lat="45.7785366" lon="11.4037377"><ele>290.0</ele><time>2026-04-25T11:31:05.667Z</time></trkpt><trkpt lat="45.7785825" lon="11.403658"><ele>288.83333333333337</ele><time>2026-04-25T11:31:08.676Z</time></trkpt><trkpt lat="45.7786349" lon="11.4035743"><ele>287.6666666666667</ele><time>2026-04-25T11:31:11.679Z</time></trkpt><trkpt lat="45.778689" lon="11.4034973"><ele>286.5</ele><time>2026-04-25T11:31:14.682Z</time></trkpt><trkpt lat="45.7787446" lon="11.4034259"><ele>285.3333333333333</ele><time>2026-04-25T11:31:17.64Z</time></trkpt><trkpt lat="45.7788021" lon="11.4033571"><ele>284.16666666666663</ele><time>2026-04-25T11:31:20.581Z</time></trkpt><trkpt lat="45.7788639" lon="11.4032797"><ele>283.0</ele><time>2026-04-25T11:31:23.677Z</time></trkpt><trkpt lat="45.7789124" lon="11.4031963"><ele>283.0</ele><time>2026-04-25T11:31:26.682Z</time></trkpt><trkpt lat="45.7789575" lon="11.4031083"><ele>283.0</ele><time>2026-04-25T11:31:29.68Z</time></trkpt><trkpt lat="45.7790059" lon="11.4030255"><ele>283.0</ele><time>2026-04-25T11:31:32.581Z</time></trkpt><trkpt lat="45.7790578" lon="11.4029443"><ele>283.0</ele><time>2026-04-25T11:31:35.675Z</time></trkpt><trkpt lat="45.7791077" lon="11.4028694"><ele>283.0</ele><time>2026-04-25T11:31:38.675Z</time></trkpt><trkpt lat="45.7791599" lon="11.4028032"><ele>283.0</ele><time>2026-04-25T11:31:41.671Z</time></trkpt><trkpt lat="45.7792165" lon="11.4027444"><ele>283.0</ele><time>2026-04-25T11:31:44.641Z</time></trkpt><trkpt lat="45.7792901" lon="11.4026655"><ele>283.8571428571429</ele><time>2026-04-25T11:31:47.672Z</time></trkpt><trkpt lat="45.7793339" lon="11.4025871"><ele>284.7142857142857</ele><time>2026-04-25T11:31:50.674Z</time></trkpt><trkpt lat="45.7793835" lon="11.4025035"><ele>285.57142857142856</ele><time>2026-04-25T11:31:53.68Z</time></trkpt><trkpt lat="45.7794195" lon="11.4024227"><ele>286.42857142857144</ele><time>2026-04-25T11:31:56.577Z</time></trkpt><trkpt lat="45.7794566" lon="11.4023385"><ele>287.2857142857143</ele><time>2026-04-25T11:31:59.671Z</time></trkpt><trkpt lat="45.7795002" lon="11.4022629"><ele>288.14285714285717</ele><time>2026-04-25T11:32:02.677Z</time></trkpt><trkpt lat="45.7795466" lon="11.4021911"><ele>289.0</ele><time>2026-04-25T11:32:05.662Z</time></trkpt><trkpt lat="45.7795947" lon="11.4021151"><ele>289.0</ele><time>2026-04-25T11:32:09.681Z</time></trkpt><trkpt lat="45.7796404" lon="11.4020514"><ele>289.0</ele><time>2026-04-25T11:32:13.673Z</time></trkpt><trkpt lat="45.7797077" lon="11.4020141"><ele>289.0</ele><time>2026-04-25T11:32:18.673Z</time></trkpt><trkpt lat="45.7797768" lon="11.4019614"><ele>289.0</ele><time>2026-04-25T11:32:22.665Z</time></trkpt><trkpt lat="45.779848" lon="11.4019104"><ele>289.0</ele><time>2026-04-25T11:32:26.684Z</time></trkpt><trkpt lat="45.7799031" lon="11.4018484"><ele>289.0</ele><time>2026-04-25T11:32:29.675Z</time></trkpt><trkpt lat="45.7799532" lon="11.401778"><ele>289.0</ele><time>2026-04-25T11:32:32.682Z</time></trkpt><trkpt lat="45.7800118" lon="11.4017329"><ele>289.0</ele><time>2026-04-25T11:32:35.598Z</time></trkpt><trkpt lat="45.7800752" lon="11.4016857"><ele>289.0</ele><time>2026-04-25T11:32:38.676Z</time></trkpt><trkpt lat="45.7801449" lon="11.4016396"><ele>289.0</ele><time>2026-04-25T11:32:42.675Z</time></trkpt><trkpt lat="45.7801917" lon="11.4015736"><ele>289.0</ele><time>2026-04-25T11:32:46.671Z</time></trkpt><trkpt lat="45.7802382" lon="11.4014889"><ele>289.0</ele><time>2026-04-25T11:32:50.601Z</time></trkpt><trkpt lat="45.7802938" lon="11.4014289"><ele>289.0</ele><time>2026-04-25T11:32:54.576Z</time></trkpt><trkpt lat="45.7803488" lon="11.4013804"><ele>289.0</ele><time>2026-04-25T11:32:57.669Z</time></trkpt><trkpt lat="45.7804036" lon="11.4013224"><ele>287.7142857142857</ele><time>2026-04-25T11:33:00.668Z</time></trkpt><trkpt lat="45.7804513" lon="11.4012549"><ele>286.42857142857144</ele><time>2026-04-25T11:33:03.674Z</time></trkpt><trkpt lat="45.7804929" lon="11.4011836"><ele>285.1428571428571</ele><time>2026-04-25T11:33:06.6Z</time></trkpt><trkpt lat="45.7805352" lon="11.4011123"><ele>283.8571428571429</ele><time>2026-04-25T11:33:09.677Z</time></trkpt><trkpt lat="45.7805834" lon="11.4010411"><ele>282.57142857142856</ele><time>2026-04-25T11:33:12.668Z</time></trkpt><trkpt lat="45.7806356" lon="11.4009685"><ele>281.2857142857143</ele><time>2026-04-25T11:33:15.621Z</time></trkpt><trkpt lat="45.7806808" lon="11.4008945"><ele>280.0</ele><time>2026-04-25T11:33:18.672Z</time></trkpt><trkpt lat="45.7807204" lon="11.4008152"><ele>280.0</ele><time>2026-04-25T11:33:21.67Z</time></trkpt><trkpt lat="45.7807629" lon="11.4007272"><ele>280.0</ele><time>2026-04-25T11:33:24.677Z</time></trkpt><trkpt lat="45.7807962" lon="11.4006272"><ele>280.0</ele><time>2026-04-25T11:33:27.673Z</time></trkpt><trkpt lat="45.7808514" lon="11.4005511"><ele>280.0</ele><time>2026-04-25T11:33:30.603Z</time></trkpt><trkpt lat="45.7809159" lon="11.4004805"><ele>280.0</ele><time>2026-04-25T11:33:33.682Z</time></trkpt><trkpt lat="45.7809787" lon="11.4004148"><ele>280.0</ele><time>2026-04-25T11:33:36.689Z</time></trkpt><trkpt lat="45.7810291" lon="11.4003331"><ele>276.8333333333333</ele><time>2026-04-25T11:33:39.636Z</time></trkpt><trkpt lat="45.781071" lon="11.4002424"><ele>273.66666666666663</ele><time>2026-04-25T11:33:42.576Z</time></trkpt><trkpt lat="45.7811027" lon="11.4001483"><ele>270.5</ele><time>2026-04-25T11:33:45.682Z</time></trkpt><trkpt lat="45.7811355" lon="11.4000448"><ele>267.3333333333333</ele><time>2026-04-25T11:33:48.674Z</time></trkpt><trkpt lat="45.7811636" lon="11.399947"><ele>264.1666666666667</ele><time>2026-04-25T11:33:51.637Z</time></trkpt><trkpt lat="45.7811967" lon="11.3998416"><ele>261.0</ele><time>2026-04-25T11:33:54.677Z</time></trkpt><trkpt lat="45.7812376" lon="11.3997396"><ele>263.0</ele><time>2026-04-25T11:33:57.687Z</time></trkpt><trkpt lat="45.7812792" lon="11.3996412"><ele>265.0</ele><time>2026-04-25T11:34:00.655Z</time></trkpt><trkpt lat="45.7813184" lon="11.3995457"><ele>267.0</ele><time>2026-04-25T11:34:03.58Z</time></trkpt><trkpt lat="45.7813608" lon="11.3994493"><ele>269.0</ele><time>2026-04-25T11:34:06.689Z</time></trkpt><trkpt lat="45.7813991" lon="11.3993565"><ele>271.0</ele><time>2026-04-25T11:34:09.657Z</time></trkpt><trkpt lat="45.7814273" lon="11.3992478"><ele>273.0</ele><time>2026-04-25T11:34:12.677Z</time></trkpt><trkpt lat="45.7814487" lon="11.39914"><ele>273.0</ele><time>2026-04-25T11:34:15.698Z</time></trkpt><trkpt lat="45.7814672" lon="11.399037"><ele>273.0</ele><time>2026-04-25T11:34:18.242Z</time></trkpt><trkpt lat="45.7814856" lon="11.3989355"><ele>273.0</ele><time>2026-04-25T11:34:20.683Z</time></trkpt><trkpt lat="45.7815024" lon="11.3988477"><ele>273.0</ele><time>2026-04-25T11:34:22.685Z</time></trkpt><trkpt lat="45.7815309" lon="11.3987172"><ele>273.0</ele><time>2026-04-25T11:34:25.689Z</time></trkpt><trkpt lat="45.7815583" lon="11.3986356"><ele>273.0</ele><time>2026-04-25T11:34:27.679Z</time></trkpt><trkpt lat="45.7816018" lon="11.3985284"><ele>274.8333333333333</ele><time>2026-04-25T11:34:30.687Z</time></trkpt><trkpt lat="45.7816479" lon="11.3984304"><ele>276.6666666666667</ele><time>2026-04-25T11:34:33.698Z</time></trkpt><trkpt lat="45.7817046" lon="11.3983241"><ele>278.5</ele><time>2026-04-25T11:34:36.599Z</time></trkpt><trkpt lat="45.7817525" lon="11.3982522"><ele>280.33333333333337</ele><time>2026-04-25T11:34:39.678Z</time></trkpt><trkpt lat="45.7817991" lon="11.3981738"><ele>282.1666666666667</ele><time>2026-04-25T11:34:42.679Z</time></trkpt><trkpt lat="45.7818288" lon="11.3980801"><ele>284.0</ele><time>2026-04-25T11:34:45.639Z</time></trkpt><trkpt lat="45.7818444" lon="11.3979808"><ele>280.83333333333337</ele><time>2026-04-25T11:34:48.583Z</time></trkpt><trkpt lat="45.7818709" lon="11.3978762"><ele>277.6666666666667</ele><time>2026-04-25T11:34:51.676Z</time></trkpt><trkpt lat="45.7819031" lon="11.3977765"><ele>274.5</ele><time>2026-04-25T11:34:54.691Z</time></trkpt><trkpt lat="45.7819405" lon="11.3976884"><ele>271.3333333333333</ele><time>2026-04-25T11:34:57.686Z</time></trkpt><trkpt lat="45.7819796" lon="11.397615"><ele>268.16666666666663</ele><time>2026-04-25T11:35:00.681Z</time></trkpt><trkpt lat="45.7820205" lon="11.3975059"><ele>265.0</ele><time>2026-04-25T11:35:04.677Z</time></trkpt><trkpt lat="45.7820562" lon="11.3974141"><ele>265.0</ele><time>2026-04-25T11:35:07.643Z</time></trkpt><trkpt lat="45.7820977" lon="11.397331"><ele>265.0</ele><time>2026-04-25T11:35:10.542Z</time></trkpt><trkpt lat="45.7821315" lon="11.3972429"><ele>265.0</ele><time>2026-04-25T11:35:13.677Z</time></trkpt><trkpt lat="45.7821688" lon="11.3971576"><ele>265.0</ele><time>2026-04-25T11:35:16.68Z</time></trkpt><trkpt lat="45.7822216" lon="11.3970708"><ele>265.0</ele><time>2026-04-25T11:35:19.643Z</time></trkpt><trkpt lat="45.782281" lon="11.3969759"><ele>265.0</ele><time>2026-04-25T11:35:22.675Z</time></trkpt><trkpt lat="45.782331" lon="11.3968799"><ele>266.8333333333333</ele><time>2026-04-25T11:35:25.671Z</time></trkpt><trkpt lat="45.78238" lon="11.3967824"><ele>268.66666666666663</ele><time>2026-04-25T11:35:28.677Z</time></trkpt><trkpt lat="45.7824331" lon="11.3966933"><ele>270.5</ele><time>2026-04-25T11:35:31.639Z</time></trkpt><trkpt lat="45.7824868" lon="11.3966179"><ele>272.3333333333333</ele><time>2026-04-25T11:35:34.673Z</time></trkpt><trkpt lat="45.7825333" lon="11.3965308"><ele>274.1666666666667</ele><time>2026-04-25T11:35:37.672Z</time></trkpt><trkpt lat="45.7825703" lon="11.3964377"><ele>276.0</ele><time>2026-04-25T11:35:40.672Z</time></trkpt><trkpt lat="45.7826032" lon="11.396342"><ele>277.6666666666667</ele><time>2026-04-25T11:35:43.642Z</time></trkpt><trkpt lat="45.7826288" lon="11.3962285"><ele>279.3333333333333</ele><time>2026-04-25T11:35:46.673Z</time></trkpt><trkpt lat="45.7826536" lon="11.3961146"><ele>281.0</ele><time>2026-04-25T11:35:49.67Z</time></trkpt><trkpt lat="45.7826789" lon="11.3959975"><ele>282.66666666666663</ele><time>2026-04-25T11:35:53.676Z</time></trkpt><trkpt lat="45.7827117" lon="11.3958989"><ele>284.3333333333333</ele><time>2026-04-25T11:35:56.671Z</time></trkpt><trkpt lat="45.7827448" lon="11.3958013"><ele>286.0</ele><time>2026-04-25T11:35:59.662Z</time></trkpt><trkpt lat="45.7827729" lon="11.3957017"><ele>281.3333333333333</ele><time>2026-04-25T11:36:02.601Z</time></trkpt><trkpt lat="45.7827992" lon="11.3955927"><ele>276.66666666666663</ele><time>2026-04-25T11:36:05.669Z</time></trkpt><trkpt lat="45.7828282" lon="11.3954889"><ele>272.0</ele><time>2026-04-25T11:36:08.675Z</time></trkpt><trkpt lat="45.7828616" lon="11.3953929"><ele>267.3333333333333</ele><time>2026-04-25T11:36:11.686Z</time></trkpt><trkpt lat="45.7828908" lon="11.3953005"><ele>262.6666666666667</ele><time>2026-04-25T11:36:14.683Z</time></trkpt><trkpt lat="45.7829072" lon="11.3951968"><ele>258.0</ele><time>2026-04-25T11:36:17.672Z</time></trkpt><trkpt lat="45.7829085" lon="11.3950799"><ele>258.0</ele><time>2026-04-25T11:36:20.639Z</time></trkpt><trkpt lat="45.7829078" lon="11.3949715"><ele>258.0</ele><time>2026-04-25T11:36:23.58Z</time></trkpt><trkpt lat="45.7829166" lon="11.3948613"><ele>258.0</ele><time>2026-04-25T11:36:26.677Z</time></trkpt><trkpt lat="45.7829413" lon="11.3947467"><ele>258.0</ele><time>2026-04-25T11:36:29.672Z</time></trkpt><trkpt lat="45.7829743" lon="11.3946305"><ele>258.0</ele><time>2026-04-25T11:36:33.676Z</time></trkpt><trkpt lat="45.7830062" lon="11.394535"><ele>258.0</ele><time>2026-04-25T11:36:36.686Z</time></trkpt><trkpt lat="45.7830461" lon="11.3944374"><ele>259.57142857142856</ele><time>2026-04-25T11:36:39.594Z</time></trkpt><trkpt lat="45.7830839" lon="11.3943338"><ele>261.1428571428571</ele><time>2026-04-25T11:36:42.673Z</time></trkpt><trkpt lat="45.7831185" lon="11.394236"><ele>262.7142857142857</ele><time>2026-04-25T11:36:45.679Z</time></trkpt><trkpt lat="45.7831515" lon="11.3941424"><ele>264.2857142857143</ele><time>2026-04-25T11:36:48.671Z</time></trkpt><trkpt lat="45.7831767" lon="11.3940469"><ele>265.8571428571429</ele><time>2026-04-25T11:36:51.594Z</time></trkpt><trkpt lat="45.7831977" lon="11.3939535"><ele>267.42857142857144</ele><time>2026-04-25T11:36:54.677Z</time></trkpt><trkpt lat="45.7832227" lon="11.3938571"><ele>269.0</ele><time>2026-04-25T11:36:57.673Z</time></trkpt><trkpt lat="45.783255" lon="11.393769"><ele>270.0</ele><time>2026-04-25T11:37:00.678Z</time></trkpt><trkpt lat="45.7832832" lon="11.3936872"><ele>271.0</ele><time>2026-04-25T11:37:03.595Z</time></trkpt><trkpt lat="45.783307" lon="11.393583"><ele>272.0</ele><time>2026-04-25T11:37:07.602Z</time></trkpt><trkpt lat="45.783325" lon="11.3934674"><ele>273.0</ele><time>2026-04-25T11:37:11.599Z</time></trkpt><trkpt lat="45.7833467" lon="11.3933545"><ele>274.0</ele><time>2026-04-25T11:37:15.621Z</time></trkpt><trkpt lat="45.7833686" lon="11.3932423"><ele>275.0</ele><time>2026-04-25T11:37:19.623Z</time></trkpt><trkpt lat="45.7833957" lon="11.3931596"><ele>276.0</ele><time>2026-04-25T11:37:22.669Z</time></trkpt><trkpt lat="45.7834284" lon="11.3930742"><ele>277.1666666666667</ele><time>2026-04-25T11:37:25.68Z</time></trkpt><trkpt lat="45.7834628" lon="11.3929783"><ele>278.3333333333333</ele><time>2026-04-25T11:37:28.64Z</time></trkpt><trkpt lat="45.7835039" lon="11.3928877"><ele>279.5</ele><time>2026-04-25T11:37:31.668Z</time></trkpt><trkpt lat="45.7835396" lon="11.3927941"><ele>280.66666666666663</ele><time>2026-04-25T11:37:34.679Z</time></trkpt><trkpt lat="45.7835726" lon="11.3927012"><ele>281.8333333333333</ele><time>2026-04-25T11:37:37.674Z</time></trkpt><trkpt lat="45.7836028" lon="11.3926029"><ele>283.0</ele><time>2026-04-25T11:37:40.685Z</time></trkpt><trkpt lat="45.78364" lon="11.3925055"><ele>279.66666666666663</ele><time>2026-04-25T11:37:43.686Z</time></trkpt><trkpt lat="45.7836879" lon="11.3924064"><ele>276.3333333333333</ele><time>2026-04-25T11:37:46.667Z</time></trkpt><trkpt lat="45.7837276" lon="11.3923052"><ele>273.0</ele><time>2026-04-25T11:37:49.691Z</time></trkpt><trkpt lat="45.7837587" lon="11.3922196"><ele>269.6666666666667</ele><time>2026-04-25T11:37:51.689Z</time></trkpt><trkpt lat="45.7837932" lon="11.3921305"><ele>266.33333333333337</ele><time>2026-04-25T11:37:54.62Z</time></trkpt><trkpt lat="45.7838334" lon="11.3920271"><ele>263.0</ele><time>2026-04-25T11:37:57.678Z</time></trkpt><trkpt lat="45.7838703" lon="11.3919275"><ele>263.0</ele><time>2026-04-25T11:38:00.677Z</time></trkpt><trkpt lat="45.7839067" lon="11.3918261"><ele>263.0</ele><time>2026-04-25T11:38:03.637Z</time></trkpt><trkpt lat="45.7839541" lon="11.3917225"><ele>263.0</ele><time>2026-04-25T11:38:06.682Z</time></trkpt><trkpt lat="45.7839949" lon="11.3916181"><ele>263.0</ele><time>2026-04-25T11:38:09.675Z</time></trkpt><trkpt lat="45.7840405" lon="11.3915206"><ele>263.0</ele><time>2026-04-25T11:38:12.676Z</time></trkpt><trkpt lat="45.7840824" lon="11.3914303"><ele>263.0</ele><time>2026-04-25T11:38:15.599Z</time></trkpt><trkpt lat="45.7841156" lon="11.3913211"><ele>265.1666666666667</ele><time>2026-04-25T11:38:18.682Z</time></trkpt><trkpt lat="45.7841503" lon="11.3912087"><ele>267.33333333333337</ele><time>2026-04-25T11:38:21.67Z</time></trkpt><trkpt lat="45.7841877" lon="11.391104"><ele>269.5</ele><time>2026-04-25T11:38:24.667Z</time></trkpt><trkpt lat="45.7842189" lon="11.3910088"><ele>271.6666666666667</ele><time>2026-04-25T11:38:27.641Z</time></trkpt><trkpt lat="45.7842419" lon="11.3909072"><ele>273.8333333333333</ele><time>2026-04-25T11:38:30.666Z</time></trkpt><trkpt lat="45.7842687" lon="11.3908091"><ele>276.0</ele><time>2026-04-25T11:38:33.676Z</time></trkpt><trkpt lat="45.7843022" lon="11.3907116"><ele>276.0</ele><time>2026-04-25T11:38:36.678Z</time></trkpt><trkpt lat="45.784323" lon="11.3906095"><ele>276.0</ele><time>2026-04-25T11:38:39.682Z</time></trkpt><trkpt lat="45.7843464" lon="11.3905103"><ele>276.0</ele><time>2026-04-25T11:38:42.622Z</time></trkpt><trkpt lat="45.7843755" lon="11.3904279"><ele>276.0</ele><time>2026-04-25T11:38:45.674Z</time></trkpt><trkpt lat="45.7843979" lon="11.3903389"><ele>276.0</ele><time>2026-04-25T11:38:48.679Z</time></trkpt><trkpt lat="45.7844249" lon="11.3902498"><ele>276.0</ele><time>2026-04-25T11:38:51.528Z</time></trkpt><trkpt lat="45.784453" lon="11.3901565"><ele>276.0</ele><time>2026-04-25T11:38:54.615Z</time></trkpt><trkpt lat="45.7844733" lon="11.3900579"><ele>275.42857142857144</ele><time>2026-04-25T11:38:57.676Z</time></trkpt><trkpt lat="45.7844933" lon="11.3899637"><ele>274.8571428571429</ele><time>2026-04-25T11:39:00.668Z</time></trkpt><trkpt lat="45.7845229" lon="11.3898649"><ele>274.2857142857143</ele><time>2026-04-25T11:39:03.678Z</time></trkpt><trkpt lat="45.784558" lon="11.3897712"><ele>273.7142857142857</ele><time>2026-04-25T11:39:06.671Z</time></trkpt><trkpt lat="45.7845798" lon="11.3896792"><ele>273.1428571428571</ele><time>2026-04-25T11:39:09.675Z</time></trkpt><trkpt lat="45.7845886" lon="11.3895796"><ele>272.57142857142856</ele><time>2026-04-25T11:39:12.682Z</time></trkpt><trkpt lat="45.7846108" lon="11.3894789"><ele>272.0</ele><time>2026-04-25T11:39:15.674Z</time></trkpt><trkpt lat="45.7846487" lon="11.3893911"><ele>272.0</ele><time>2026-04-25T11:39:18.668Z</time></trkpt><trkpt lat="45.7846933" lon="11.3893088"><ele>272.0</ele><time>2026-04-25T11:39:21.681Z</time></trkpt><trkpt lat="45.7847402" lon="11.3892272"><ele>272.0</ele><time>2026-04-25T11:39:24.677Z</time></trkpt><trkpt lat="45.7847939" lon="11.3891361"><ele>272.0</ele><time>2026-04-25T11:39:28.602Z</time></trkpt><trkpt lat="45.7848359" lon="11.3890433"><ele>272.0</ele><time>2026-04-25T11:39:32.581Z</time></trkpt><trkpt lat="45.7848799" lon="11.3889539"><ele>272.0</ele><time>2026-04-25T11:39:36.671Z</time></trkpt><trkpt lat="45.7849261" lon="11.3888608"><ele>273.6666666666667</ele><time>2026-04-25T11:39:40.677Z</time></trkpt><trkpt lat="45.7849571" lon="11.3887733"><ele>275.33333333333337</ele><time>2026-04-25T11:39:43.671Z</time></trkpt><trkpt lat="45.7849954" lon="11.3886908"><ele>277.0</ele><time>2026-04-25T11:39:46.662Z</time></trkpt><trkpt lat="45.7850414" lon="11.3885849"><ele>278.6666666666667</ele><time>2026-04-25T11:39:49.662Z</time></trkpt><trkpt lat="45.7850685" lon="11.3884904"><ele>280.3333333333333</ele><time>2026-04-25T11:39:51.665Z</time></trkpt><trkpt lat="45.7850717" lon="11.388345"><ele>282.0</ele><time>2026-04-25T11:39:53.661Z</time></trkpt><trkpt lat="45.785076" lon="11.3882151"><ele>282.0</ele><time>2026-04-25T11:39:55.668Z</time></trkpt><trkpt lat="45.7851056" lon="11.3881112"><ele>282.0</ele><time>2026-04-25T11:39:57.67Z</time></trkpt><trkpt lat="45.7851348" lon="11.3880263"><ele>282.0</ele><time>2026-04-25T11:39:59.637Z</time></trkpt><trkpt lat="45.7851724" lon="11.3879343"><ele>282.0</ele><time>2026-04-25T11:40:01.668Z</time></trkpt><trkpt lat="45.7852242" lon="11.3878372"><ele>282.0</ele><time>2026-04-25T11:40:04.67Z</time></trkpt><trkpt lat="45.7852746" lon="11.3877552"><ele>282.0</ele><time>2026-04-25T11:40:07.666Z</time></trkpt><trkpt lat="45.785238" lon="11.3878587"><ele>280.6</ele><time>2026-04-25T11:40:22.662Z</time></trkpt><trkpt lat="45.7853443" lon="11.3876257"><ele>279.2</ele><time>2026-04-25T11:40:38.681Z</time></trkpt><trkpt lat="45.7853613" lon="11.3874979"><ele>277.8</ele><time>2026-04-25T11:40:41.68Z</time></trkpt><trkpt lat="45.7853849" lon="11.3874026"><ele>276.4</ele><time>2026-04-25T11:40:44.678Z</time></trkpt><trkpt lat="45.7854331" lon="11.3873245"><ele>275.0</ele><time>2026-04-25T11:40:47.688Z</time></trkpt><trkpt lat="45.7854628" lon="11.3872253"><ele>275.6666666666667</ele><time>2026-04-25T11:40:51.685Z</time></trkpt><trkpt lat="45.7855088" lon="11.3871442"><ele>276.33333333333337</ele><time>2026-04-25T11:40:55.684Z</time></trkpt><trkpt lat="45.7855487" lon="11.387025"><ele>277.0</ele><time>2026-04-25T11:40:58.674Z</time></trkpt><trkpt lat="45.7856011" lon="11.3869662"><ele>277.6666666666667</ele><time>2026-04-25T11:41:01.693Z</time></trkpt><trkpt lat="45.7856744" lon="11.3869439"><ele>278.3333333333333</ele><time>2026-04-25T11:41:05.56Z</time></trkpt><trkpt lat="45.7857238" lon="11.3868512"><ele>279.0</ele><time>2026-04-25T11:41:09.678Z</time></trkpt><trkpt lat="45.7857479" lon="11.3867606"><ele>278.99999999999994</ele><time>2026-04-25T11:41:12.686Z</time></trkpt><trkpt lat="45.7857797" lon="11.3866493"><ele>279.0</ele><time>2026-04-25T11:41:16.69Z</time></trkpt><trkpt lat="45.785796" lon="11.3865618"><ele>279.0</ele><time>2026-04-25T11:41:19.686Z</time></trkpt><trkpt lat="45.7858157" lon="11.3864742"><ele>279.0</ele><time>2026-04-25T11:41:22.682Z</time></trkpt><trkpt lat="45.7858588" lon="11.3863923"><ele>279.0</ele><time>2026-04-25T11:41:25.688Z</time></trkpt><trkpt lat="45.7859111" lon="11.3863151"><ele>278.99999999999994</ele><time>2026-04-25T11:41:28.638Z</time></trkpt><trkpt lat="45.7859615" lon="11.3862314"><ele>279.0</ele><time>2026-04-25T11:41:31.681Z</time></trkpt><trkpt lat="45.7860149" lon="11.3861361"><ele>278.1428571428571</ele><time>2026-04-25T11:41:34.672Z</time></trkpt><trkpt lat="45.7860593" lon="11.3860652"><ele>277.2857142857143</ele><time>2026-04-25T11:41:37.655Z</time></trkpt><trkpt lat="45.786108" lon="11.385991"><ele>276.42857142857144</ele><time>2026-04-25T11:41:40.678Z</time></trkpt><trkpt lat="45.7861492" lon="11.3859049"><ele>275.57142857142856</ele><time>2026-04-25T11:41:43.67Z</time></trkpt><trkpt lat="45.7861965" lon="11.3858193"><ele>274.7142857142857</ele><time>2026-04-25T11:41:46.622Z</time></trkpt><trkpt lat="45.7862576" lon="11.3857464"><ele>273.85714285714283</ele><time>2026-04-25T11:41:49.671Z</time></trkpt><trkpt lat="45.7863256" lon="11.3856942"><ele>273.0</ele><time>2026-04-25T11:41:52.682Z</time></trkpt><trkpt lat="45.7863877" lon="11.3856421"><ele>273.0</ele><time>2026-04-25T11:41:55.67Z</time></trkpt><trkpt lat="45.7864438" lon="11.385578"><ele>273.0</ele><time>2026-04-25T11:41:58.697Z</time></trkpt><trkpt lat="45.7865075" lon="11.3854793"><ele>273.0</ele><time>2026-04-25T11:42:01.634Z</time></trkpt><trkpt lat="45.7865476" lon="11.3853874"><ele>273.0</ele><time>2026-04-25T11:42:03.683Z</time></trkpt><trkpt lat="45.786602" lon="11.3852733"><ele>273.0</ele><time>2026-04-25T11:42:06.667Z</time></trkpt><trkpt lat="45.7866655" lon="11.3851883"><ele>273.0</ele><time>2026-04-25T11:42:09.619Z</time></trkpt><trkpt lat="45.7867345" lon="11.38511"><ele>273.5</ele><time>2026-04-25T11:42:12.663Z</time></trkpt><trkpt lat="45.7867986" lon="11.3850485"><ele>274.0</ele><time>2026-04-25T11:42:15.674Z</time></trkpt><trkpt lat="45.7868574" lon="11.3849855"><ele>274.5</ele><time>2026-04-25T11:42:18.669Z</time></trkpt><trkpt lat="45.7869237" lon="11.3849345"><ele>275.0</ele><time>2026-04-25T11:42:21.657Z</time></trkpt><trkpt lat="45.7869838" lon="11.3848824"><ele>275.5</ele><time>2026-04-25T11:42:24.621Z</time></trkpt><trkpt lat="45.787051" lon="11.3848193"><ele>276.0</ele><time>2026-04-25T11:42:28.595Z</time></trkpt><trkpt lat="45.7871053" lon="11.3847446"><ele>277.5</ele><time>2026-04-25T11:42:32.682Z</time></trkpt><trkpt lat="45.7871618" lon="11.3846624"><ele>279.0</ele><time>2026-04-25T11:42:36.654Z</time></trkpt><trkpt lat="45.7872179" lon="11.3845847"><ele>280.5</ele><time>2026-04-25T11:42:40.661Z</time></trkpt><trkpt lat="45.7872582" lon="11.3844902"><ele>282.0</ele><time>2026-04-25T11:42:44.681Z</time></trkpt><trkpt lat="45.7873055" lon="11.3844005"><ele>283.5</ele><time>2026-04-25T11:42:48.678Z</time></trkpt><trkpt lat="45.7873526" lon="11.3843132"><ele>285.0</ele><time>2026-04-25T11:42:52.667Z</time></trkpt><trkpt lat="45.7874035" lon="11.3842275"><ele>285.0</ele><time>2026-04-25T11:42:56.675Z</time></trkpt><trkpt lat="45.7874488" lon="11.3841631"><ele>285.0</ele><time>2026-04-25T11:42:59.678Z</time></trkpt><trkpt lat="45.7874993" lon="11.3841037"><ele>285.0</ele><time>2026-04-25T11:43:02.597Z</time></trkpt><trkpt lat="45.7875536" lon="11.3840483"><ele>285.0</ele><time>2026-04-25T11:43:05.667Z</time></trkpt><trkpt lat="45.7876057" lon="11.3839699"><ele>285.0</ele><time>2026-04-25T11:43:09.599Z</time></trkpt><trkpt lat="45.7876508" lon="11.3838872"><ele>285.0</ele><time>2026-04-25T11:43:13.682Z</time></trkpt><trkpt lat="45.7877014" lon="11.3838093"><ele>285.0</ele><time>2026-04-25T11:43:17.669Z</time></trkpt><trkpt lat="45.7877576" lon="11.3837435"><ele>284.2857142857143</ele><time>2026-04-25T11:43:21.673Z</time></trkpt><trkpt lat="45.7878132" lon="11.3836986"><ele>283.57142857142856</ele><time>2026-04-25T11:43:24.682Z</time></trkpt><trkpt lat="45.787881" lon="11.3836354"><ele>282.8571428571429</ele><time>2026-04-25T11:43:28.67Z</time></trkpt><trkpt lat="45.7879237" lon="11.3835668"><ele>282.1428571428571</ele><time>2026-04-25T11:43:31.681Z</time></trkpt><trkpt lat="45.7879932" lon="11.383503"><ele>281.42857142857144</ele><time>2026-04-25T11:43:35.677Z</time></trkpt><trkpt lat="45.7880413" lon="11.3834369"><ele>280.7142857142857</ele><time>2026-04-25T11:43:38.619Z</time></trkpt><trkpt lat="45.7880865" lon="11.3833635"><ele>280.0</ele><time>2026-04-25T11:43:41.675Z</time></trkpt><trkpt lat="45.788128" lon="11.3832906"><ele>280.0</ele><time>2026-04-25T11:43:44.676Z</time></trkpt><trkpt lat="45.7881728" lon="11.3832234"><ele>280.0</ele><time>2026-04-25T11:43:47.675Z</time></trkpt><trkpt lat="45.7882013" lon="11.3831202"><ele>280.0</ele><time>2026-04-25T11:43:50.667Z</time></trkpt><trkpt lat="45.7882365" lon="11.3830137"><ele>280.0</ele><time>2026-04-25T11:43:53.641Z</time></trkpt><trkpt lat="45.7882947" lon="11.3829284"><ele>280.0</ele><time>2026-04-25T11:43:56.579Z</time></trkpt><trkpt lat="45.7883487" lon="11.3828598"><ele>280.0</ele><time>2026-04-25T11:43:58.677Z</time></trkpt><trkpt lat="45.7884219" lon="11.3827647"><ele>279.8333333333333</ele><time>2026-04-25T11:44:01.68Z</time></trkpt><trkpt lat="45.788467" lon="11.3826948"><ele>279.66666666666663</ele><time>2026-04-25T11:44:03.678Z</time></trkpt><trkpt lat="45.7885334" lon="11.3826075"><ele>279.5</ele><time>2026-04-25T11:44:06.671Z</time></trkpt><trkpt lat="45.7885879" lon="11.3825153"><ele>279.3333333333333</ele><time>2026-04-25T11:44:09.674Z</time></trkpt><trkpt lat="45.7886367" lon="11.3824258"><ele>279.1666666666667</ele><time>2026-04-25T11:44:12.64Z</time></trkpt><trkpt lat="45.7886765" lon="11.3823376"><ele>279.0</ele><time>2026-04-25T11:44:15.666Z</time></trkpt><trkpt lat="45.7887142" lon="11.3822491"><ele>279.2857142857143</ele><time>2026-04-25T11:44:18.675Z</time></trkpt><trkpt lat="45.7887594" lon="11.3821696"><ele>279.57142857142856</ele><time>2026-04-25T11:44:21.671Z</time></trkpt><trkpt lat="45.7888114" lon="11.3820962"><ele>279.8571428571429</ele><time>2026-04-25T11:44:24.681Z</time></trkpt><trkpt lat="45.7888668" lon="11.382034"><ele>280.1428571428571</ele><time>2026-04-25T11:44:27.618Z</time></trkpt><trkpt lat="45.7889176" lon="11.3819732"><ele>280.42857142857144</ele><time>2026-04-25T11:44:30.667Z</time></trkpt><trkpt lat="45.7889719" lon="11.381885"><ele>280.7142857142857</ele><time>2026-04-25T11:44:34.67Z</time></trkpt><trkpt lat="45.7890154" lon="11.381809"><ele>281.0</ele><time>2026-04-25T11:44:37.669Z</time></trkpt><trkpt lat="45.7890481" lon="11.381725"><ele>281.00000000000006</ele><time>2026-04-25T11:44:40.68Z</time></trkpt><trkpt lat="45.7890774" lon="11.3816357"><ele>281.0</ele><time>2026-04-25T11:44:43.621Z</time></trkpt><trkpt lat="45.7891181" lon="11.381549"><ele>281.0</ele><time>2026-04-25T11:44:46.669Z</time></trkpt><trkpt lat="45.7891556" lon="11.3814722"><ele>281.0</ele><time>2026-04-25T11:44:49.676Z</time></trkpt><trkpt lat="45.7891919" lon="11.3813891"><ele>281.0</ele><time>2026-04-25T11:44:52.666Z</time></trkpt><trkpt lat="45.789228" lon="11.3813023"><ele>281.00000000000006</ele><time>2026-04-25T11:44:55.599Z</time></trkpt><trkpt lat="45.7892659" lon="11.381215"><ele>281.0</ele><time>2026-04-25T11:44:58.674Z</time></trkpt><trkpt lat="45.7893068" lon="11.3811393"><ele>280.5714285714286</ele><time>2026-04-25T11:45:01.674Z</time></trkpt><trkpt lat="45.7893458" lon="11.3810577"><ele>280.14285714285717</ele><time>2026-04-25T11:45:04.677Z</time></trkpt><trkpt lat="45.7893814" lon="11.3809698"><ele>279.7142857142857</ele><time>2026-04-25T11:45:07.681Z</time></trkpt><trkpt lat="45.7894187" lon="11.3808887"><ele>279.28571428571433</ele><time>2026-04-25T11:45:10.622Z</time></trkpt><trkpt lat="45.7894605" lon="11.3808144"><ele>278.8571428571429</ele><time>2026-04-25T11:45:13.634Z</time></trkpt><trkpt lat="45.7895003" lon="11.3807407"><ele>278.42857142857144</ele><time>2026-04-25T11:45:16.599Z</time></trkpt><trkpt lat="45.7895375" lon="11.3806586"><ele>278.0</ele><time>2026-04-25T11:45:19.672Z</time></trkpt><trkpt lat="45.7895726" lon="11.3805787"><ele>278.42857142857144</ele><time>2026-04-25T11:45:22.664Z</time></trkpt><trkpt lat="45.7896117" lon="11.3804927"><ele>278.8571428571429</ele><time>2026-04-25T11:45:25.684Z</time></trkpt><trkpt lat="45.7896553" lon="11.3804143"><ele>279.28571428571433</ele><time>2026-04-25T11:45:28.679Z</time></trkpt><trkpt lat="45.789702" lon="11.38034"><ele>279.7142857142857</ele><time>2026-04-25T11:45:31.596Z</time></trkpt><trkpt lat="45.78975" lon="11.3802524"><ele>280.14285714285717</ele><time>2026-04-25T11:45:34.669Z</time></trkpt><trkpt lat="45.7897939" lon="11.3801704"><ele>280.5714285714286</ele><time>2026-04-25T11:45:37.672Z</time></trkpt><trkpt lat="45.7898391" lon="11.3800921"><ele>281.0</ele><time>2026-04-25T11:45:40.672Z</time></trkpt><trkpt lat="45.7898834" lon="11.3800078"><ele>281.00000000000006</ele><time>2026-04-25T11:45:43.674Z</time></trkpt><trkpt lat="45.7899304" lon="11.3799241"><ele>281.0</ele><time>2026-04-25T11:45:46.635Z</time></trkpt><trkpt lat="45.7899764" lon="11.3798423"><ele>281.0</ele><time>2026-04-25T11:45:49.599Z</time></trkpt><trkpt lat="45.7900202" lon="11.3797578"><ele>281.0</ele><time>2026-04-25T11:45:52.676Z</time></trkpt><trkpt lat="45.7900681" lon="11.3796796"><ele>281.0</ele><time>2026-04-25T11:45:55.657Z</time></trkpt><trkpt lat="45.7901196" lon="11.3796038"><ele>281.00000000000006</ele><time>2026-04-25T11:45:58.676Z</time></trkpt><trkpt lat="45.7901655" lon="11.3795258"><ele>281.0</ele><time>2026-04-25T11:46:01.657Z</time></trkpt><trkpt lat="45.7902083" lon="11.3794501"><ele>281.5714285714286</ele><time>2026-04-25T11:46:04.674Z</time></trkpt><trkpt lat="45.7902529" lon="11.3793719"><ele>282.14285714285717</ele><time>2026-04-25T11:46:07.668Z</time></trkpt><trkpt lat="45.7902914" lon="11.3792823"><ele>282.7142857142857</ele><time>2026-04-25T11:46:10.673Z</time></trkpt><trkpt lat="45.7903206" lon="11.3791866"><ele>283.28571428571433</ele><time>2026-04-25T11:46:13.678Z</time></trkpt><trkpt lat="45.7903523" lon="11.3790969"><ele>283.8571428571429</ele><time>2026-04-25T11:46:16.67Z</time></trkpt><trkpt lat="45.7903796" lon="11.3790083"><ele>284.42857142857144</ele><time>2026-04-25T11:46:19.675Z</time></trkpt><trkpt lat="45.790407" lon="11.3789232"><ele>285.0</ele><time>2026-04-25T11:46:22.637Z</time></trkpt><trkpt lat="45.7904557" lon="11.3788304"><ele>285.0</ele><time>2026-04-25T11:46:26.619Z</time></trkpt><trkpt lat="45.7904992" lon="11.3787299"><ele>285.0</ele><time>2026-04-25T11:46:30.595Z</time></trkpt><trkpt lat="45.7905322" lon="11.3786414"><ele>285.0</ele><time>2026-04-25T11:46:33.673Z</time></trkpt><trkpt lat="45.7905691" lon="11.3785534"><ele>285.0</ele><time>2026-04-25T11:46:36.679Z</time></trkpt><trkpt lat="45.7906139" lon="11.378478"><ele>285.0</ele><time>2026-04-25T11:46:39.668Z</time></trkpt><trkpt lat="45.7906517" lon="11.3784037"><ele>285.0</ele><time>2026-04-25T11:46:42.675Z</time></trkpt><trkpt lat="45.7906935" lon="11.3783198"><ele>285.0</ele><time>2026-04-25T11:46:45.653Z</time></trkpt><trkpt lat="45.7907335" lon="11.3782293"><ele>285.0</ele><time>2026-04-25T11:46:49.66Z</time></trkpt><trkpt lat="45.790783" lon="11.3781567"><ele>285.0</ele><time>2026-04-25T11:46:53.674Z</time></trkpt><trkpt lat="45.790823" lon="11.3780854"><ele>285.0</ele><time>2026-04-25T11:46:56.6Z</time></trkpt><trkpt lat="45.7908606" lon="11.3779939"><ele>285.0</ele><time>2026-04-25T11:46:59.664Z</time></trkpt><trkpt lat="45.7908852" lon="11.3778962"><ele>285.0</ele><time>2026-04-25T11:47:02.665Z</time></trkpt><trkpt lat="45.7909164" lon="11.3778039"><ele>285.0</ele><time>2026-04-25T11:47:05.676Z</time></trkpt><trkpt lat="45.7909661" lon="11.3777248"><ele>285.0</ele><time>2026-04-25T11:47:08.672Z</time></trkpt><trkpt lat="45.7910033" lon="11.377646"><ele>285.1428571428571</ele><time>2026-04-25T11:47:11.672Z</time></trkpt><trkpt lat="45.7910354" lon="11.377561"><ele>285.2857142857143</ele><time>2026-04-25T11:47:14.596Z</time></trkpt><trkpt lat="45.7910713" lon="11.3774819"><ele>285.42857142857144</ele><time>2026-04-25T11:47:17.669Z</time></trkpt><trkpt lat="45.7911067" lon="11.3773745"><ele>285.57142857142856</ele><time>2026-04-25T11:47:21.673Z</time></trkpt><trkpt lat="45.7911277" lon="11.3772786"><ele>285.7142857142857</ele><time>2026-04-25T11:47:24.671Z</time></trkpt><trkpt lat="45.7911594" lon="11.3771904"><ele>285.85714285714283</ele><time>2026-04-25T11:47:27.677Z</time></trkpt><trkpt lat="45.7911944" lon="11.3771131"><ele>286.0</ele><time>2026-04-25T11:47:30.675Z</time></trkpt><trkpt lat="45.7912344" lon="11.3770386"><ele>286.2857142857143</ele><time>2026-04-25T11:47:33.604Z</time></trkpt><trkpt lat="45.7912861" lon="11.3769642"><ele>286.57142857142856</ele><time>2026-04-25T11:47:36.668Z</time></trkpt><trkpt lat="45.7913271" lon="11.3768777"><ele>286.8571428571429</ele><time>2026-04-25T11:47:39.665Z</time></trkpt><trkpt lat="45.7913595" lon="11.3767976"><ele>287.1428571428571</ele><time>2026-04-25T11:47:42.669Z</time></trkpt><trkpt lat="45.7914029" lon="11.3767047"><ele>287.42857142857144</ele><time>2026-04-25T11:47:46.672Z</time></trkpt><trkpt lat="45.7914465" lon="11.3766209"><ele>287.7142857142857</ele><time>2026-04-25T11:47:50.662Z</time></trkpt><trkpt lat="45.7915004" lon="11.3765529"><ele>288.0</ele><time>2026-04-25T11:47:54.665Z</time></trkpt><trkpt lat="45.791566" lon="11.3764972"><ele>288.0</ele><time>2026-04-25T11:47:59.664Z</time></trkpt><trkpt lat="45.7916161" lon="11.3764151"><ele>288.0</ele><time>2026-04-25T11:48:02.677Z</time></trkpt><trkpt lat="45.7916602" lon="11.3763489"><ele>288.0</ele><time>2026-04-25T11:48:06.401Z</time></trkpt><trkpt lat="45.7917052" lon="11.3761771"><ele>288.0</ele><time>2026-04-25T11:48:08.642Z</time></trkpt><trkpt lat="45.7917307" lon="11.3760168"><ele>288.0</ele><time>2026-04-25T11:48:09.665Z</time></trkpt><trkpt lat="45.7917382" lon="11.3759236"><ele>288.0</ele><time>2026-04-25T11:48:12.018Z</time></trkpt><trkpt lat="45.7917895" lon="11.3758427"><ele>287.8571428571429</ele><time>2026-04-25T11:48:15.26Z</time></trkpt><trkpt lat="45.7918457" lon="11.3757924"><ele>287.7142857142857</ele><time>2026-04-25T11:48:18.679Z</time></trkpt><trkpt lat="45.7919067" lon="11.3757228"><ele>287.57142857142856</ele><time>2026-04-25T11:48:22.639Z</time></trkpt><trkpt lat="45.7919665" lon="11.3756733"><ele>287.42857142857144</ele><time>2026-04-25T11:48:26.662Z</time></trkpt><trkpt lat="45.7920238" lon="11.3756256"><ele>287.2857142857143</ele><time>2026-04-25T11:48:30.635Z</time></trkpt><trkpt lat="45.7920757" lon="11.3755649"><ele>287.14285714285717</ele><time>2026-04-25T11:48:34.656Z</time></trkpt><trkpt lat="45.7921203" lon="11.3754788"><ele>287.0</ele><time>2026-04-25T11:48:39.668Z</time></trkpt><trkpt lat="45.7921572" lon="11.3753794"><ele>287.2857142857143</ele><time>2026-04-25T11:48:43.675Z</time></trkpt><trkpt lat="45.7921963" lon="11.375297"><ele>287.57142857142856</ele><time>2026-04-25T11:48:46.619Z</time></trkpt><trkpt lat="45.7922568" lon="11.3752113"><ele>287.8571428571429</ele><time>2026-04-25T11:48:50.659Z</time></trkpt><trkpt lat="45.7922991" lon="11.375134"><ele>288.1428571428571</ele><time>2026-04-25T11:48:53.666Z</time></trkpt><trkpt lat="45.792344" lon="11.3750679"><ele>288.42857142857144</ele><time>2026-04-25T11:48:56.674Z</time></trkpt><trkpt lat="45.7924023" lon="11.3749932"><ele>288.7142857142857</ele><time>2026-04-25T11:49:00.677Z</time></trkpt><trkpt lat="45.7924684" lon="11.3749263"><ele>289.0</ele><time>2026-04-25T11:49:04.68Z</time></trkpt><trkpt lat="45.7925252" lon="11.3748797"><ele>289.0</ele><time>2026-04-25T11:49:07.682Z</time></trkpt><trkpt lat="45.7925708" lon="11.3748152"><ele>289.0</ele><time>2026-04-25T11:49:10.668Z</time></trkpt><trkpt lat="45.7926242" lon="11.3747533"><ele>289.0</ele><time>2026-04-25T11:49:13.638Z</time></trkpt><trkpt lat="45.7926861" lon="11.3746763"><ele>289.0</ele><time>2026-04-25T11:49:17.602Z</time></trkpt><trkpt lat="45.7927318" lon="11.3746039"><ele>289.0</ele><time>2026-04-25T11:49:20.671Z</time></trkpt><trkpt lat="45.7927829" lon="11.374528"><ele>289.0</ele><time>2026-04-25T11:49:23.67Z</time></trkpt><trkpt lat="45.7928368" lon="11.374462"><ele>289.0</ele><time>2026-04-25T11:49:26.593Z</time></trkpt><trkpt lat="45.7928979" lon="11.3743941"><ele>289.42857142857144</ele><time>2026-04-25T11:49:29.671Z</time></trkpt><trkpt lat="45.7929671" lon="11.3743385"><ele>289.85714285714283</ele><time>2026-04-25T11:49:32.678Z</time></trkpt><trkpt lat="45.7930342" lon="11.3742857"><ele>290.2857142857143</ele><time>2026-04-25T11:49:35.637Z</time></trkpt><trkpt lat="45.7930917" lon="11.3742189"><ele>290.7142857142857</ele><time>2026-04-25T11:49:38.678Z</time></trkpt><trkpt lat="45.7931438" lon="11.3741475"><ele>291.14285714285717</ele><time>2026-04-25T11:49:41.677Z</time></trkpt><trkpt lat="45.7931943" lon="11.3740738"><ele>291.57142857142856</ele><time>2026-04-25T11:49:44.635Z</time></trkpt><trkpt lat="45.793243" lon="11.3740052"><ele>292.0</ele><time>2026-04-25T11:49:47.67Z</time></trkpt><trkpt lat="45.7932867" lon="11.3739334"><ele>292.0</ele><time>2026-04-25T11:49:50.674Z</time></trkpt><trkpt lat="45.7933307" lon="11.3738663"><ele>292.0</ele><time>2026-04-25T11:49:53.675Z</time></trkpt><trkpt lat="45.7933766" lon="11.373798"><ele>292.0</ele><time>2026-04-25T11:49:56.679Z</time></trkpt><trkpt lat="45.7934206" lon="11.3736968"><ele>292.0</ele><time>2026-04-25T11:50:00.637Z</time></trkpt><trkpt lat="45.7934455" lon="11.3736026"><ele>292.0</ele><time>2026-04-25T11:50:03.685Z</time></trkpt><trkpt lat="45.7934792" lon="11.3735182"><ele>292.0</ele><time>2026-04-25T11:50:06.688Z</time></trkpt><trkpt lat="45.7935199" lon="11.3734189"><ele>292.0</ele><time>2026-04-25T11:50:10.678Z</time></trkpt><trkpt lat="45.793549" lon="11.3733207"><ele>291.8333333333333</ele><time>2026-04-25T11:50:14.683Z</time></trkpt><trkpt lat="45.7935865" lon="11.3732284"><ele>291.66666666666663</ele><time>2026-04-25T11:50:18.594Z</time></trkpt><trkpt lat="45.7936569" lon="11.3731607"><ele>291.5</ele><time>2026-04-25T11:50:22.677Z</time></trkpt><trkpt lat="45.7937161" lon="11.3731107"><ele>291.3333333333333</ele><time>2026-04-25T11:50:25.671Z</time></trkpt><trkpt lat="45.793776" lon="11.3730666"><ele>291.1666666666667</ele><time>2026-04-25T11:50:28.68Z</time></trkpt><trkpt lat="45.7938481" lon="11.3730065"><ele>291.0</ele><time>2026-04-25T11:50:32.613Z</time></trkpt><trkpt lat="45.7939004" lon="11.3729334"><ele>290.5</ele><time>2026-04-25T11:50:35.672Z</time></trkpt><trkpt lat="45.7939491" lon="11.3728613"><ele>290.0</ele><time>2026-04-25T11:50:38.673Z</time></trkpt><trkpt lat="45.79401" lon="11.372787"><ele>289.5</ele><time>2026-04-25T11:50:41.679Z</time></trkpt><trkpt lat="45.794082" lon="11.3727056"><ele>289.0</ele><time>2026-04-25T11:50:44.674Z</time></trkpt><trkpt lat="45.7941532" lon="11.3726183"><ele>288.5</ele><time>2026-04-25T11:50:47.678Z</time></trkpt><trkpt lat="45.7942215" lon="11.3725253"><ele>288.0</ele><time>2026-04-25T11:50:50.678Z</time></trkpt><trkpt lat="45.7943012" lon="11.3724588"><ele>287.7142857142857</ele><time>2026-04-25T11:50:53.674Z</time></trkpt><trkpt lat="45.7943487" lon="11.3723914"><ele>287.42857142857144</ele><time>2026-04-25T11:50:55.683Z</time></trkpt><trkpt lat="45.7943927" lon="11.3723223"><ele>287.1428571428571</ele><time>2026-04-25T11:50:57.677Z</time></trkpt><trkpt lat="45.7944509" lon="11.3722316"><ele>286.8571428571429</ele><time>2026-04-25T11:51:00.687Z</time></trkpt><trkpt lat="45.7945072" lon="11.3721311"><ele>286.57142857142856</ele><time>2026-04-25T11:51:03.682Z</time></trkpt><trkpt lat="45.7945491" lon="11.3720522"><ele>286.2857142857143</ele><time>2026-04-25T11:51:05.675Z</time></trkpt><trkpt lat="45.794587" lon="11.3719796"><ele>286.0</ele><time>2026-04-25T11:51:07.581Z</time></trkpt><trkpt lat="45.7946303" lon="11.3718998"><ele>286.0</ele><time>2026-04-25T11:51:09.679Z</time></trkpt><trkpt lat="45.7946847" lon="11.371801"><ele>286.0</ele><time>2026-04-25T11:51:12.599Z</time></trkpt><trkpt lat="45.7947246" lon="11.3717298"><ele>286.0</ele><time>2026-04-25T11:51:14.676Z</time></trkpt><trkpt lat="45.7947676" lon="11.3716361"><ele>286.0</ele><time>2026-04-25T11:51:17.578Z</time></trkpt><trkpt lat="45.7948106" lon="11.371534"><ele>286.0</ele><time>2026-04-25T11:51:20.673Z</time></trkpt><trkpt lat="45.7948615" lon="11.3714381"><ele>286.0</ele><time>2026-04-25T11:51:23.586Z</time></trkpt><trkpt lat="45.794909" lon="11.3713336"><ele>286.5</ele><time>2026-04-25T11:51:26.678Z</time></trkpt><trkpt lat="45.7949499" lon="11.371235"><ele>287.0</ele><time>2026-04-25T11:51:29.679Z</time></trkpt><trkpt lat="45.7949797" lon="11.3711336"><ele>287.5</ele><time>2026-04-25T11:51:32.674Z</time></trkpt><trkpt lat="45.7950051" lon="11.3710346"><ele>288.0</ele><time>2026-04-25T11:51:35.682Z</time></trkpt><trkpt lat="45.7950334" lon="11.3709375"><ele>288.5</ele><time>2026-04-25T11:51:38.682Z</time></trkpt><trkpt lat="45.7950635" lon="11.3708455"><ele>289.0</ele><time>2026-04-25T11:51:41.595Z</time></trkpt><trkpt lat="45.7951004" lon="11.3707448"><ele>289.0</ele><time>2026-04-25T11:51:44.672Z</time></trkpt><trkpt lat="45.795136" lon="11.3706564"><ele>289.0</ele><time>2026-04-25T11:51:47.673Z</time></trkpt><trkpt lat="45.795172" lon="11.3705679"><ele>289.0</ele><time>2026-04-25T11:51:50.678Z</time></trkpt><trkpt lat="45.7952103" lon="11.3704654"><ele>289.0</ele><time>2026-04-25T11:51:54.656Z</time></trkpt><trkpt lat="45.7952522" lon="11.3703634"><ele>289.0</ele><time>2026-04-25T11:51:58.675Z</time></trkpt><trkpt lat="45.7952908" lon="11.3702885"><ele>289.0</ele><time>2026-04-25T11:52:01.635Z</time></trkpt><trkpt lat="45.7953335" lon="11.370215"><ele>289.0</ele><time>2026-04-25T11:52:04.682Z</time></trkpt><trkpt lat="45.7953638" lon="11.3701308"><ele>288.8571428571429</ele><time>2026-04-25T11:52:07.674Z</time></trkpt><trkpt lat="45.7953923" lon="11.3700423"><ele>288.7142857142857</ele><time>2026-04-25T11:52:10.679Z</time></trkpt><trkpt lat="45.7954262" lon="11.3699586"><ele>288.57142857142856</ele><time>2026-04-25T11:52:13.676Z</time></trkpt><trkpt lat="45.7954495" lon="11.3698739"><ele>288.42857142857144</ele><time>2026-04-25T11:52:17.597Z</time></trkpt><trkpt lat="45.7954573" lon="11.3697692"><ele>288.2857142857143</ele><time>2026-04-25T11:52:21.669Z</time></trkpt><trkpt lat="45.7954897" lon="11.3696881"><ele>288.14285714285717</ele><time>2026-04-25T11:52:24.676Z</time></trkpt><trkpt lat="45.7955329" lon="11.3696078"><ele>288.0</ele><time>2026-04-25T11:52:27.633Z</time></trkpt><trkpt lat="45.7955717" lon="11.3695299"><ele>288.00000000000006</ele><time>2026-04-25T11:52:30.672Z</time></trkpt><trkpt lat="45.7955989" lon="11.3694244"><ele>288.0</ele><time>2026-04-25T11:52:34.674Z</time></trkpt><trkpt lat="45.7956264" lon="11.3693206"><ele>288.0</ele><time>2026-04-25T11:52:38.689Z</time></trkpt><trkpt lat="45.7956601" lon="11.3692417"><ele>288.0</ele><time>2026-04-25T11:52:41.597Z</time></trkpt><trkpt lat="45.7956814" lon="11.3691467"><ele>288.0</ele><time>2026-04-25T11:52:44.674Z</time></trkpt><trkpt lat="45.795692" lon="11.3690445"><ele>288.00000000000006</ele><time>2026-04-25T11:52:47.678Z</time></trkpt><trkpt lat="45.7957092" lon="11.3689405"><ele>288.0</ele><time>2026-04-25T11:52:50.614Z</time></trkpt><trkpt lat="45.7957351" lon="11.3688347"><ele>288.5714285714286</ele><time>2026-04-25T11:52:53.678Z</time></trkpt><trkpt lat="45.7957646" lon="11.3687354"><ele>289.14285714285717</ele><time>2026-04-25T11:52:56.674Z</time></trkpt><trkpt lat="45.795789" lon="11.3686396"><ele>289.7142857142857</ele><time>2026-04-25T11:52:59.601Z</time></trkpt><trkpt lat="45.7958197" lon="11.3685375"><ele>290.28571428571433</ele><time>2026-04-25T11:53:02.676Z</time></trkpt><trkpt lat="45.7958563" lon="11.3684394"><ele>290.8571428571429</ele><time>2026-04-25T11:53:05.671Z</time></trkpt><trkpt lat="45.7958949" lon="11.3683455"><ele>291.42857142857144</ele><time>2026-04-25T11:53:08.672Z</time></trkpt><trkpt lat="45.795924" lon="11.3682522"><ele>292.0</ele><time>2026-04-25T11:53:11.682Z</time></trkpt><trkpt lat="45.7959289" lon="11.36815"><ele>292.0</ele><time>2026-04-25T11:53:14.672Z</time></trkpt><trkpt lat="45.7959221" lon="11.3680492"><ele>292.0</ele><time>2026-04-25T11:53:17.614Z</time></trkpt><trkpt lat="45.7959189" lon="11.3679435"><ele>292.0</ele><time>2026-04-25T11:53:20.674Z</time></trkpt><trkpt lat="45.7959138" lon="11.3678363"><ele>292.0</ele><time>2026-04-25T11:53:23.68Z</time></trkpt><trkpt lat="45.7959058" lon="11.3677287"><ele>292.0</ele><time>2026-04-25T11:53:26.681Z</time></trkpt><trkpt lat="45.7959088" lon="11.3676227"><ele>292.0</ele><time>2026-04-25T11:53:29.679Z</time></trkpt><trkpt lat="45.7959158" lon="11.3675139"><ele>292.0</ele><time>2026-04-25T11:53:32.678Z</time></trkpt><trkpt lat="45.7959238" lon="11.367408"><ele>291.85714285714283</ele><time>2026-04-25T11:53:35.672Z</time></trkpt><trkpt lat="45.7959421" lon="11.3672994"><ele>291.7142857142857</ele><time>2026-04-25T11:53:38.616Z</time></trkpt><trkpt lat="45.7959617" lon="11.3671889"><ele>291.57142857142856</ele><time>2026-04-25T11:53:41.675Z</time></trkpt><trkpt lat="45.795981" lon="11.3670863"><ele>291.42857142857144</ele><time>2026-04-25T11:53:44.671Z</time></trkpt><trkpt lat="45.7960108" lon="11.3669896"><ele>291.2857142857143</ele><time>2026-04-25T11:53:47.621Z</time></trkpt><trkpt lat="45.7960376" lon="11.3668958"><ele>291.1428571428571</ele><time>2026-04-25T11:53:50.674Z</time></trkpt><trkpt lat="45.7960528" lon="11.3667936"><ele>291.0</ele><time>2026-04-25T11:53:53.669Z</time></trkpt><trkpt lat="45.7960642" lon="11.3666812"><ele>290.85714285714283</ele><time>2026-04-25T11:53:56.671Z</time></trkpt><trkpt lat="45.7960809" lon="11.3665684"><ele>290.71428571428567</ele><time>2026-04-25T11:53:59.618Z</time></trkpt><trkpt lat="45.7960903" lon="11.3664561"><ele>290.57142857142856</ele><time>2026-04-25T11:54:02.677Z</time></trkpt><trkpt lat="45.7961076" lon="11.3663654"><ele>290.42857142857144</ele><time>2026-04-25T11:54:05.673Z</time></trkpt><trkpt lat="45.7961212" lon="11.3662763"><ele>290.28571428571433</ele><time>2026-04-25T11:54:08.679Z</time></trkpt><trkpt lat="45.7961368" lon="11.3661804"><ele>290.14285714285717</ele><time>2026-04-25T11:54:11.679Z</time></trkpt><trkpt lat="45.796163" lon="11.3660892"><ele>290.0</ele><time>2026-04-25T11:54:14.621Z</time></trkpt><trkpt lat="45.7961863" lon="11.3659911"><ele>289.83333333333337</ele><time>2026-04-25T11:54:17.683Z</time></trkpt><trkpt lat="45.7962064" lon="11.3658914"><ele>289.6666666666667</ele><time>2026-04-25T11:54:20.673Z</time></trkpt><trkpt lat="45.7962228" lon="11.3657882"><ele>289.5</ele><time>2026-04-25T11:54:23.674Z</time></trkpt><trkpt lat="45.7962407" lon="11.3656886"><ele>289.3333333333333</ele><time>2026-04-25T11:54:26.654Z</time></trkpt><trkpt lat="45.7962622" lon="11.3656019"><ele>289.16666666666663</ele><time>2026-04-25T11:54:29.601Z</time></trkpt><trkpt lat="45.7962905" lon="11.3654894"><ele>289.0</ele><time>2026-04-25T11:54:33.638Z</time></trkpt><trkpt lat="45.7963181" lon="11.3653745"><ele>289.0</ele><time>2026-04-25T11:54:37.638Z</time></trkpt><trkpt lat="45.7963348" lon="11.3652848"><ele>289.0</ele><time>2026-04-25T11:54:40.585Z</time></trkpt><trkpt lat="45.7963594" lon="11.3652005"><ele>289.0</ele><time>2026-04-25T11:54:43.681Z</time></trkpt><trkpt lat="45.7963815" lon="11.3651113"><ele>289.0</ele><time>2026-04-25T11:54:46.678Z</time></trkpt><trkpt lat="45.7964087" lon="11.3650024"><ele>289.0</ele><time>2026-04-25T11:54:50.679Z</time></trkpt><trkpt lat="45.7964198" lon="11.3649059"><ele>289.0</ele><time>2026-04-25T11:54:53.668Z</time></trkpt><trkpt lat="45.7964222" lon="11.3648006"><ele>289.0</ele><time>2026-04-25T11:54:56.68Z</time></trkpt><trkpt lat="45.7964354" lon="11.3646908"><ele>289.0</ele><time>2026-04-25T11:55:00.669Z</time></trkpt><trkpt lat="45.7964543" lon="11.36457"><ele>289.0</ele><time>2026-04-25T11:55:04.683Z</time></trkpt><trkpt lat="45.7964694" lon="11.3644729"><ele>289.0</ele><time>2026-04-25T11:55:07.681Z</time></trkpt><trkpt lat="45.7964832" lon="11.3643783"><ele>289.0</ele><time>2026-04-25T11:55:10.675Z</time></trkpt><trkpt lat="45.7964945" lon="11.3642758"><ele>289.0</ele><time>2026-04-25T11:55:13.677Z</time></trkpt><trkpt lat="45.7964995" lon="11.3641672"><ele>289.0</ele><time>2026-04-25T11:55:16.675Z</time></trkpt><trkpt lat="45.7965028" lon="11.364059"><ele>289.0</ele><time>2026-04-25T11:55:19.678Z</time></trkpt><trkpt lat="45.7965034" lon="11.3639536"><ele>289.57142857142856</ele><time>2026-04-25T11:55:22.619Z</time></trkpt><trkpt lat="45.7965059" lon="11.3638455"><ele>290.1428571428571</ele><time>2026-04-25T11:55:25.677Z</time></trkpt><trkpt lat="45.7965098" lon="11.3637476"><ele>290.71428571428567</ele><time>2026-04-25T11:55:28.677Z</time></trkpt><trkpt lat="45.7965122" lon="11.3636566"><ele>291.2857142857143</ele><time>2026-04-25T11:55:31.677Z</time></trkpt><trkpt lat="45.796513" lon="11.3635594"><ele>291.85714285714283</ele><time>2026-04-25T11:55:34.637Z</time></trkpt><trkpt lat="45.7965102" lon="11.3634624"><ele>292.4285714285714</ele><time>2026-04-25T11:55:37.677Z</time></trkpt><trkpt lat="45.7965088" lon="11.3633624"><ele>293.0</ele><time>2026-04-25T11:55:40.661Z</time></trkpt><trkpt lat="45.7965011" lon="11.3632522"><ele>292.99999999999994</ele><time>2026-04-25T11:55:43.678Z</time></trkpt><trkpt lat="45.7964959" lon="11.3631558"><ele>293.0</ele><time>2026-04-25T11:55:46.669Z</time></trkpt><trkpt lat="45.7965016" lon="11.3630608"><ele>293.0</ele><time>2026-04-25T11:55:49.618Z</time></trkpt><trkpt lat="45.7965067" lon="11.362967"><ele>293.0</ele><time>2026-04-25T11:55:52.676Z</time></trkpt><trkpt lat="45.79651" lon="11.3628749"><ele>293.0</ele><time>2026-04-25T11:55:55.667Z</time></trkpt><trkpt lat="45.7965096" lon="11.3627749"><ele>292.99999999999994</ele><time>2026-04-25T11:55:58.672Z</time></trkpt><trkpt lat="45.7965123" lon="11.3626748"><ele>293.0</ele><time>2026-04-25T11:56:01.635Z</time></trkpt><trkpt lat="45.796508" lon="11.3625758"><ele>293.83333333333337</ele><time>2026-04-25T11:56:04.677Z</time></trkpt><trkpt lat="45.7965003" lon="11.3624858"><ele>294.6666666666667</ele><time>2026-04-25T11:56:07.68Z</time></trkpt><trkpt lat="45.7964866" lon="11.3623701"><ele>295.5</ele><time>2026-04-25T11:56:11.683Z</time></trkpt><trkpt lat="45.7964828" lon="11.3622623"><ele>296.3333333333333</ele><time>2026-04-25T11:56:15.672Z</time></trkpt><trkpt lat="45.796486" lon="11.3621439"><ele>297.16666666666663</ele><time>2026-04-25T11:56:19.675Z</time></trkpt><trkpt lat="45.796504" lon="11.3620418"><ele>298.0</ele><time>2026-04-25T11:56:23.575Z</time></trkpt><trkpt lat="45.7965055" lon="11.3619344"><ele>298.0</ele><time>2026-04-25T11:56:27.682Z</time></trkpt><trkpt lat="45.7964944" lon="11.3618146"><ele>298.0</ele><time>2026-04-25T11:56:31.672Z</time></trkpt><trkpt lat="45.7964944" lon="11.3616962"><ele>298.0</ele><time>2026-04-25T11:56:35.616Z</time></trkpt><trkpt lat="45.796484" lon="11.3615966"><ele>298.0</ele><time>2026-04-25T11:56:38.683Z</time></trkpt><trkpt lat="45.7964767" lon="11.3614974"><ele>298.0</ele><time>2026-04-25T11:56:41.678Z</time></trkpt><trkpt lat="45.7964745" lon="11.3613889"><ele>298.0</ele><time>2026-04-25T11:56:44.683Z</time></trkpt><trkpt lat="45.7964872" lon="11.3612839"><ele>298.1428571428571</ele><time>2026-04-25T11:56:47.68Z</time></trkpt><trkpt lat="45.796499" lon="11.3611868"><ele>298.2857142857143</ele><time>2026-04-25T11:56:50.67Z</time></trkpt><trkpt lat="45.7965138" lon="11.3610961"><ele>298.42857142857144</ele><time>2026-04-25T11:56:53.674Z</time></trkpt><trkpt lat="45.7965244" lon="11.3610055"><ele>298.57142857142856</ele><time>2026-04-25T11:56:56.676Z</time></trkpt><trkpt lat="45.796536" lon="11.360913"><ele>298.7142857142857</ele><time>2026-04-25T11:56:59.615Z</time></trkpt><trkpt lat="45.7965488" lon="11.3608242"><ele>298.85714285714283</ele><time>2026-04-25T11:57:02.674Z</time></trkpt><trkpt lat="45.7965783" lon="11.360725"><ele>299.0</ele><time>2026-04-25T11:57:06.679Z</time></trkpt><trkpt lat="45.7966157" lon="11.3606385"><ele>299.0</ele><time>2026-04-25T11:57:10.681Z</time></trkpt><trkpt lat="45.7966439" lon="11.360555"><ele>299.0</ele><time>2026-04-25T11:57:14.681Z</time></trkpt><trkpt lat="45.7966807" lon="11.360449"><ele>299.0</ele><time>2026-04-25T11:57:18.635Z</time></trkpt><trkpt lat="45.7967147" lon="11.3603545"><ele>299.0</ele><time>2026-04-25T11:57:22.596Z</time></trkpt><trkpt lat="45.7967569" lon="11.3602824"><ele>299.0</ele><time>2026-04-25T11:57:26.595Z</time></trkpt><trkpt lat="45.7967897" lon="11.3601771"><ele>299.0</ele><time>2026-04-25T11:57:30.681Z</time></trkpt><trkpt lat="45.7968376" lon="11.3600774"><ele>298.2857142857143</ele><time>2026-04-25T11:57:34.614Z</time></trkpt><trkpt lat="45.7968898" lon="11.3599836"><ele>297.57142857142856</ele><time>2026-04-25T11:57:38.679Z</time></trkpt><trkpt lat="45.7969471" lon="11.3598996"><ele>296.8571428571429</ele><time>2026-04-25T11:57:42.601Z</time></trkpt><trkpt lat="45.7969931" lon="11.3598354"><ele>296.1428571428571</ele><time>2026-04-25T11:57:45.677Z</time></trkpt><trkpt lat="45.7970429" lon="11.3597736"><ele>295.42857142857144</ele><time>2026-04-25T11:57:48.682Z</time></trkpt><trkpt lat="45.7970914" lon="11.3597136"><ele>294.7142857142857</ele><time>2026-04-25T11:57:51.678Z</time></trkpt><trkpt lat="45.7971564" lon="11.3596471"><ele>294.0</ele><time>2026-04-25T11:57:55.656Z</time></trkpt><trkpt lat="45.7972115" lon="11.3595863"><ele>294.0</ele><time>2026-04-25T11:57:59.688Z</time></trkpt><trkpt lat="45.7972763" lon="11.3595254"><ele>294.0</ele><time>2026-04-25T11:58:03.672Z</time></trkpt><trkpt lat="45.7973452" lon="11.3594574"><ele>294.0</ele><time>2026-04-25T11:58:07.676Z</time></trkpt><trkpt lat="45.7974069" lon="11.3594036"><ele>294.0</ele><time>2026-04-25T11:58:10.697Z</time></trkpt><trkpt lat="45.7974709" lon="11.359355"><ele>294.0</ele><time>2026-04-25T11:58:13.637Z</time></trkpt><trkpt lat="45.7975434" lon="11.3593158"><ele>294.0</ele><time>2026-04-25T11:58:16.676Z</time></trkpt><trkpt lat="45.797615" lon="11.3592751"><ele>292.5</ele><time>2026-04-25T11:58:19.678Z</time></trkpt><trkpt lat="45.7976884" lon="11.3592297"><ele>291.0</ele><time>2026-04-25T11:58:22.677Z</time></trkpt><trkpt lat="45.7977519" lon="11.359184"><ele>289.5</ele><time>2026-04-25T11:58:25.67Z</time></trkpt><trkpt lat="45.797811" lon="11.3591388"><ele>288.0</ele><time>2026-04-25T11:58:28.619Z</time></trkpt><trkpt lat="45.7978837" lon="11.3590805"><ele>286.5</ele><time>2026-04-25T11:58:32.654Z</time></trkpt><trkpt lat="45.7979545" lon="11.3590294"><ele>285.0</ele><time>2026-04-25T11:58:36.68Z</time></trkpt><trkpt lat="45.7980327" lon="11.3589899"><ele>285.0</ele><time>2026-04-25T11:58:40.678Z</time></trkpt><trkpt lat="45.7981082" lon="11.3589731"><ele>285.0</ele><time>2026-04-25T11:58:44.684Z</time></trkpt><trkpt lat="45.798184" lon="11.3589241"><ele>285.0</ele><time>2026-04-25T11:58:48.664Z</time></trkpt><trkpt lat="45.7982583" lon="11.358856"><ele>285.0</ele><time>2026-04-25T11:58:50.68Z</time></trkpt><trkpt lat="45.7983228" lon="11.3588285"><ele>285.0</ele><time>2026-04-25T11:58:52.668Z</time></trkpt><trkpt lat="45.7984111" lon="11.3587894"><ele>285.0</ele><time>2026-04-25T11:58:55.668Z</time></trkpt><trkpt lat="45.7985045" lon="11.3587525"><ele>295.0</ele><time>2026-04-25T11:58:59.675Z</time></trkpt></trkseg></trk></gpx>